<?xml version="1.0" encoding="UTF-8"?>
<gpx version="1.1" creator="https://www.youtrack.es" xsi:schemaLocation="http://www.topografix.com/GPX/1/1 http://www.topografix.com/GPX/1/1/gpx.xsd http://www.garmin.com/xmlschemas/GpxExtensions/v3 http://www.garmin.com/xmlschemas/GpxExtensionsv3.xsd http://www.garmin.com/xmlschemas/TrackPointExtension/v1 http://www.garmin.com/xmlschemas/TrackPointExtensionv1.xsd" xmlns:gpxtpx="http://www.garmin.com/xmlschemas/TrackPointExtension/v1" xmlns:gpxx="http://www.garmin.com/xmlschemas/GpxExtensions/v3" xmlns:xsi="http://www.w3.org/2001/XMLSchema-instance">
  <metadata>
    <link href="https://www.youtrack.es">
      <text>YouTrack.es</text>
    </link>
    <time>2026-05-08T16:33:25Z</time>
  </metadata>
  <trk>
    <src>https://www.youtrack.es</src>
    <link href="https://www.youtrack.es/ruta/1064-tres-vertices">
      <text>YouTrack.es</text>
    </link>
    <trkseg>
      <trkpt lat="41.661944" lon="-0.889513">
        <ele>198.219</ele>
        <time>2014-09-28T06:38:17Z</time>
      </trkpt>
      <trkpt lat="41.661385" lon="-0.889116">
        <ele>195.309</ele>
        <time>2014-09-28T06:38:31Z</time>
      </trkpt>
      <trkpt lat="41.660042" lon="-0.885954">
        <ele>198.719</ele>
        <time>2014-09-28T06:39:36Z</time>
      </trkpt>
      <trkpt lat="41.659503" lon="-0.884270">
        <ele>194.807</ele>
        <time>2014-09-28T06:40:03Z</time>
      </trkpt>
      <trkpt lat="41.659271" lon="-0.882262">
        <ele>196.398</ele>
        <time>2014-09-28T06:40:40Z</time>
      </trkpt>
      <trkpt lat="41.659402" lon="-0.880038">
        <ele>197.259</ele>
        <time>2014-09-28T06:41:22Z</time>
      </trkpt>
      <trkpt lat="41.659006" lon="-0.878283">
        <ele>197.230</ele>
        <time>2014-09-28T06:41:53Z</time>
      </trkpt>
      <trkpt lat="41.658549" lon="-0.877325">
        <ele>197.224</ele>
        <time>2014-09-28T06:42:12Z</time>
      </trkpt>
      <trkpt lat="41.658127" lon="-0.875721">
        <ele>195.340</ele>
        <time>2014-09-28T06:42:41Z</time>
      </trkpt>
      <trkpt lat="41.657908" lon="-0.874121">
        <ele>192.985</ele>
        <time>2014-09-28T06:43:09Z</time>
      </trkpt>
      <trkpt lat="41.657316" lon="-0.873410">
        <ele>192.992</ele>
        <time>2014-09-28T06:43:27Z</time>
      </trkpt>
      <trkpt lat="41.656295" lon="-0.870044">
        <ele>194.865</ele>
        <time>2014-09-28T06:44:31Z</time>
      </trkpt>
      <trkpt lat="41.654986" lon="-0.866899">
        <ele>194.368</ele>
        <time>2014-09-28T06:45:22Z</time>
      </trkpt>
      <trkpt lat="41.653457" lon="-0.861840">
        <ele>193.814</ele>
        <time>2014-09-28T06:46:45Z</time>
      </trkpt>
      <trkpt lat="41.653344" lon="-0.860327">
        <ele>193.807</ele>
        <time>2014-09-28T06:47:08Z</time>
      </trkpt>
      <trkpt lat="41.652739" lon="-0.858573">
        <ele>195.843</ele>
        <time>2014-09-28T06:47:40Z</time>
      </trkpt>
      <trkpt lat="41.652964" lon="-0.857684">
        <ele>198.744</ele>
        <time>2014-09-28T06:48:15Z</time>
      </trkpt>
      <trkpt lat="41.652584" lon="-0.856334">
        <ele>198.715</ele>
        <time>2014-09-28T06:48:54Z</time>
      </trkpt>
      <trkpt lat="41.652298" lon="-0.855975">
        <ele>194.829</ele>
        <time>2014-09-28T06:49:01Z</time>
      </trkpt>
      <trkpt lat="41.651707" lon="-0.853912">
        <ele>193.845</ele>
        <time>2014-09-28T06:49:33Z</time>
      </trkpt>
      <trkpt lat="41.651587" lon="-0.852353">
        <ele>192.490</ele>
        <time>2014-09-28T06:49:54Z</time>
      </trkpt>
      <trkpt lat="41.651738" lon="-0.851112">
        <ele>197.267</ele>
        <time>2014-09-28T06:50:16Z</time>
      </trkpt>
      <trkpt lat="41.651460" lon="-0.850188">
        <ele>195.391</ele>
        <time>2014-09-28T06:50:34Z</time>
      </trkpt>
      <trkpt lat="41.650866" lon="-0.849523">
        <ele>191.481</ele>
        <time>2014-09-28T06:50:48Z</time>
      </trkpt>
      <trkpt lat="41.650861" lon="-0.849160">
        <ele>191.019</ele>
        <time>2014-09-28T06:50:56Z</time>
      </trkpt>
      <trkpt lat="41.650634" lon="-0.848809">
        <ele>190.507</ele>
        <time>2014-09-28T06:51:07Z</time>
      </trkpt>
      <trkpt lat="41.651308" lon="-0.849019">
        <ele>191.996</ele>
        <time>2014-09-28T06:51:34Z</time>
      </trkpt>
      <trkpt lat="41.651940" lon="-0.848932">
        <ele>191.917</ele>
        <time>2014-09-28T06:51:49Z</time>
      </trkpt>
      <trkpt lat="41.652730" lon="-0.849097">
        <ele>191.988</ele>
        <time>2014-09-28T06:52:05Z</time>
      </trkpt>
      <trkpt lat="41.653699" lon="-0.849667">
        <ele>192.432</ele>
        <time>2014-09-28T06:52:27Z</time>
      </trkpt>
      <trkpt lat="41.653965" lon="-0.849979">
        <ele>196.378</ele>
        <time>2014-09-28T06:52:35Z</time>
      </trkpt>
      <trkpt lat="41.655162" lon="-0.850494">
        <ele>196.763</ele>
        <time>2014-09-28T06:53:06Z</time>
      </trkpt>
      <trkpt lat="41.655797" lon="-0.850440">
        <ele>195.370</ele>
        <time>2014-09-28T06:53:19Z</time>
      </trkpt>
      <trkpt lat="41.657768" lon="-0.849214">
        <ele>194.847</ele>
        <time>2014-09-28T06:54:02Z</time>
      </trkpt>
      <trkpt lat="41.659659" lon="-0.848666">
        <ele>194.829</ele>
        <time>2014-09-28T06:54:41Z</time>
      </trkpt>
      <trkpt lat="41.660386" lon="-0.847792">
        <ele>194.821</ele>
        <time>2014-09-28T06:55:01Z</time>
      </trkpt>
      <trkpt lat="41.663264" lon="-0.846171">
        <ele>194.307</ele>
        <time>2014-09-28T06:56:10Z</time>
      </trkpt>
      <trkpt lat="41.664750" lon="-0.844210">
        <ele>195.841</ele>
        <time>2014-09-28T06:56:54Z</time>
      </trkpt>
      <trkpt lat="41.666004" lon="-0.843434">
        <ele>195.892</ele>
        <time>2014-09-28T06:57:21Z</time>
      </trkpt>
      <trkpt lat="41.668273" lon="-0.842426">
        <ele>195.873</ele>
        <time>2014-09-28T06:58:10Z</time>
      </trkpt>
      <trkpt lat="41.668416" lon="-0.842488">
        <ele>195.857</ele>
        <time>2014-09-28T06:58:15Z</time>
      </trkpt>
      <trkpt lat="41.668289" lon="-0.842903">
        <ele>200.183</ele>
        <time>2014-09-28T06:58:30Z</time>
      </trkpt>
      <trkpt lat="41.668525" lon="-0.842541">
        <ele>200.668</ele>
        <time>2014-09-28T06:58:41Z</time>
      </trkpt>
      <trkpt lat="41.668511" lon="-0.841410">
        <ele>199.195</ele>
        <time>2014-09-28T06:59:01Z</time>
      </trkpt>
      <trkpt lat="41.668671" lon="-0.841120">
        <ele>198.298</ele>
        <time>2014-09-28T06:59:07Z</time>
      </trkpt>
      <trkpt lat="41.669552" lon="-0.841089">
        <ele>198.215</ele>
        <time>2014-09-28T06:59:25Z</time>
      </trkpt>
      <trkpt lat="41.670917" lon="-0.841325">
        <ele>198.226</ele>
        <time>2014-09-28T06:59:54Z</time>
      </trkpt>
      <trkpt lat="41.671091" lon="-0.840991">
        <ele>198.207</ele>
        <time>2014-09-28T07:00:00Z</time>
      </trkpt>
      <trkpt lat="41.671034" lon="-0.840373">
        <ele>200.656</ele>
        <time>2014-09-28T07:00:11Z</time>
      </trkpt>
      <trkpt lat="41.670726" lon="-0.840316">
        <ele>203.567</ele>
        <time>2014-09-28T07:00:22Z</time>
      </trkpt>
      <trkpt lat="41.670478" lon="-0.839733">
        <ele>202.028</ele>
        <time>2014-09-28T07:00:32Z</time>
      </trkpt>
      <trkpt lat="41.670378" lon="-0.838541">
        <ele>203.062</ele>
        <time>2014-09-28T07:00:54Z</time>
      </trkpt>
      <trkpt lat="41.670870" lon="-0.837961">
        <ele>203.598</ele>
        <time>2014-09-28T07:01:08Z</time>
      </trkpt>
      <trkpt lat="41.671773" lon="-0.836436">
        <ele>203.933</ele>
        <time>2014-09-28T07:01:35Z</time>
      </trkpt>
      <trkpt lat="41.672021" lon="-0.835606">
        <ele>206.320</ele>
        <time>2014-09-28T07:01:49Z</time>
      </trkpt>
      <trkpt lat="41.672321" lon="-0.835281">
        <ele>206.852</ele>
        <time>2014-09-28T07:01:56Z</time>
      </trkpt>
      <trkpt lat="41.672688" lon="-0.834162">
        <ele>208.753</ele>
        <time>2014-09-28T07:02:13Z</time>
      </trkpt>
      <trkpt lat="41.672902" lon="-0.832151">
        <ele>213.608</ele>
        <time>2014-09-28T07:02:50Z</time>
      </trkpt>
      <trkpt lat="41.673316" lon="-0.831095">
        <ele>216.407</ele>
        <time>2014-09-28T07:03:07Z</time>
      </trkpt>
      <trkpt lat="41.673893" lon="-0.830244">
        <ele>219.352</ele>
        <time>2014-09-28T07:03:23Z</time>
      </trkpt>
      <trkpt lat="41.675719" lon="-0.829557">
        <ele>217.463</ele>
        <time>2014-09-28T07:03:54Z</time>
      </trkpt>
      <trkpt lat="41.675730" lon="-0.829395">
        <ele>216.434</ele>
        <time>2014-09-28T07:04:00Z</time>
      </trkpt>
      <trkpt lat="41.675380" lon="-0.829428">
        <ele>216.478</ele>
        <time>2014-09-28T07:04:09Z</time>
      </trkpt>
      <trkpt lat="41.675170" lon="-0.829155">
        <ele>216.444</ele>
        <time>2014-09-28T07:04:16Z</time>
      </trkpt>
      <trkpt lat="41.674860" lon="-0.827758">
        <ele>216.419</ele>
        <time>2014-09-28T07:04:39Z</time>
      </trkpt>
      <trkpt lat="41.674981" lon="-0.826828">
        <ele>217.466</ele>
        <time>2014-09-28T07:05:53Z</time>
      </trkpt>
      <trkpt lat="41.676104" lon="-0.822670">
        <ele>217.458</ele>
        <time>2014-09-28T07:07:12Z</time>
      </trkpt>
      <trkpt lat="41.677617" lon="-0.819541">
        <ele>217.452</ele>
        <time>2014-09-28T07:08:03Z</time>
      </trkpt>
      <trkpt lat="41.678004" lon="-0.818301">
        <ele>218.417</ele>
        <time>2014-09-28T07:08:23Z</time>
      </trkpt>
      <trkpt lat="41.678175" lon="-0.815366">
        <ele>216.907</ele>
        <time>2014-09-28T07:09:10Z</time>
      </trkpt>
      <trkpt lat="41.678413" lon="-0.815065">
        <ele>216.982</ele>
        <time>2014-09-28T07:09:18Z</time>
      </trkpt>
      <trkpt lat="41.678575" lon="-0.810939">
        <ele>216.473</ele>
        <time>2014-09-28T07:10:20Z</time>
      </trkpt>
      <trkpt lat="41.677900" lon="-0.804403">
        <ele>217.914</ele>
        <time>2014-09-28T07:11:58Z</time>
      </trkpt>
      <trkpt lat="41.677600" lon="-0.803142">
        <ele>218.418</ele>
        <time>2014-09-28T07:12:17Z</time>
      </trkpt>
      <trkpt lat="41.677748" lon="-0.801981">
        <ele>218.434</ele>
        <time>2014-09-28T07:12:34Z</time>
      </trkpt>
      <trkpt lat="41.677325" lon="-0.800390">
        <ele>217.989</ele>
        <time>2014-09-28T07:12:59Z</time>
      </trkpt>
      <trkpt lat="41.677929" lon="-0.796518">
        <ele>217.956</ele>
        <time>2014-09-28T07:13:58Z</time>
      </trkpt>
      <trkpt lat="41.677467" lon="-0.794356">
        <ele>216.021</ele>
        <time>2014-09-28T07:14:30Z</time>
      </trkpt>
      <trkpt lat="41.677301" lon="-0.792865">
        <ele>216.041</ele>
        <time>2014-09-28T07:14:57Z</time>
      </trkpt>
      <trkpt lat="41.677348" lon="-0.792011">
        <ele>215.505</ele>
        <time>2014-09-28T07:15:10Z</time>
      </trkpt>
      <trkpt lat="41.677095" lon="-0.790940">
        <ele>215.007</ele>
        <time>2014-09-28T07:15:27Z</time>
      </trkpt>
      <trkpt lat="41.676298" lon="-0.790738">
        <ele>215.089</ele>
        <time>2014-09-28T07:15:46Z</time>
      </trkpt>
      <trkpt lat="41.675592" lon="-0.790075">
        <ele>216.440</ele>
        <time>2014-09-28T07:16:05Z</time>
      </trkpt>
      <trkpt lat="41.674612" lon="-0.789751">
        <ele>216.491</ele>
        <time>2014-09-28T07:16:26Z</time>
      </trkpt>
      <trkpt lat="41.673475" lon="-0.789779">
        <ele>216.045</ele>
        <time>2014-09-28T07:16:49Z</time>
      </trkpt>
      <trkpt lat="41.672313" lon="-0.789331">
        <ele>216.481</ele>
        <time>2014-09-28T07:17:13Z</time>
      </trkpt>
      <trkpt lat="41.671269" lon="-0.788826">
        <ele>216.436</ele>
        <time>2014-09-28T07:17:34Z</time>
      </trkpt>
      <trkpt lat="41.671199" lon="-0.788609">
        <ele>215.573</ele>
        <time>2014-09-28T07:17:39Z</time>
      </trkpt>
      <trkpt lat="41.672702" lon="-0.786137">
        <ele>215.049</ele>
        <time>2014-09-28T07:18:27Z</time>
      </trkpt>
      <trkpt lat="41.673347" lon="-0.785666">
        <ele>214.502</ele>
        <time>2014-09-28T07:18:41Z</time>
      </trkpt>
      <trkpt lat="41.673616" lon="-0.785272">
        <ele>213.122</ele>
        <time>2014-09-28T07:18:48Z</time>
      </trkpt>
      <trkpt lat="41.673552" lon="-0.783725">
        <ele>213.107</ele>
        <time>2014-09-28T07:19:10Z</time>
      </trkpt>
      <trkpt lat="41.673187" lon="-0.782477">
        <ele>216.071</ele>
        <time>2014-09-28T07:19:31Z</time>
      </trkpt>
      <trkpt lat="41.673189" lon="-0.781525">
        <ele>216.442</ele>
        <time>2014-09-28T07:19:46Z</time>
      </trkpt>
      <trkpt lat="41.674023" lon="-0.779732">
        <ele>216.413</ele>
        <time>2014-09-28T07:20:17Z</time>
      </trkpt>
      <trkpt lat="41.675240" lon="-0.778101">
        <ele>216.967</ele>
        <time>2014-09-28T07:20:53Z</time>
      </trkpt>
      <trkpt lat="41.675209" lon="-0.777857">
        <ele>217.983</ele>
        <time>2014-09-28T07:21:01Z</time>
      </trkpt>
      <trkpt lat="41.673733" lon="-0.778408">
        <ele>217.958</ele>
        <time>2014-09-28T07:21:31Z</time>
      </trkpt>
      <trkpt lat="41.672132" lon="-0.778619">
        <ele>216.045</ele>
        <time>2014-09-28T07:22:02Z</time>
      </trkpt>
      <trkpt lat="41.669528" lon="-0.779234">
        <ele>215.538</ele>
        <time>2014-09-28T07:22:54Z</time>
      </trkpt>
      <trkpt lat="41.668679" lon="-0.779136">
        <ele>215.070</ele>
        <time>2014-09-28T07:23:10Z</time>
      </trkpt>
      <trkpt lat="41.667951" lon="-0.778814">
        <ele>215.017</ele>
        <time>2014-09-28T07:23:25Z</time>
      </trkpt>
      <trkpt lat="41.666647" lon="-0.777943">
        <ele>214.507</ele>
        <time>2014-09-28T07:23:55Z</time>
      </trkpt>
      <trkpt lat="41.664686" lon="-0.777827">
        <ele>215.050</ele>
        <time>2014-09-28T07:24:35Z</time>
      </trkpt>
      <trkpt lat="41.663791" lon="-0.778049">
        <ele>215.041</ele>
        <time>2014-09-28T07:24:53Z</time>
      </trkpt>
      <trkpt lat="41.662856" lon="-0.777977">
        <ele>214.572</ele>
        <time>2014-09-28T07:25:11Z</time>
      </trkpt>
      <trkpt lat="41.661368" lon="-0.776997">
        <ele>214.026</ele>
        <time>2014-09-28T07:25:45Z</time>
      </trkpt>
      <trkpt lat="41.661037" lon="-0.773905">
        <ele>217.962</ele>
        <time>2014-09-28T07:29:30Z</time>
      </trkpt>
      <trkpt lat="41.661229" lon="-0.772365">
        <ele>219.357</ele>
        <time>2014-09-28T07:29:54Z</time>
      </trkpt>
      <trkpt lat="41.660908" lon="-0.771676">
        <ele>219.334</ele>
        <time>2014-09-28T07:30:07Z</time>
      </trkpt>
      <trkpt lat="41.660718" lon="-0.770404">
        <ele>220.335</ele>
        <time>2014-09-28T07:30:27Z</time>
      </trkpt>
      <trkpt lat="41.659991" lon="-0.769871">
        <ele>222.786</ele>
        <time>2014-09-28T07:30:44Z</time>
      </trkpt>
      <trkpt lat="41.659172" lon="-0.769968">
        <ele>221.714</ele>
        <time>2014-09-28T07:30:59Z</time>
      </trkpt>
      <trkpt lat="41.657589" lon="-0.769787">
        <ele>220.307</ele>
        <time>2014-09-28T07:31:28Z</time>
      </trkpt>
      <trkpt lat="41.656429" lon="-0.769109">
        <ele>219.360</ele>
        <time>2014-09-28T07:31:51Z</time>
      </trkpt>
      <trkpt lat="41.656300" lon="-0.768658">
        <ele>218.821</ele>
        <time>2014-09-28T07:31:59Z</time>
      </trkpt>
      <trkpt lat="41.656610" lon="-0.767333">
        <ele>221.782</ele>
        <time>2014-09-28T07:32:19Z</time>
      </trkpt>
      <trkpt lat="41.657354" lon="-0.765019">
        <ele>224.676</ele>
        <time>2014-09-28T07:32:56Z</time>
      </trkpt>
      <trkpt lat="41.657923" lon="-0.763882">
        <ele>224.622</ele>
        <time>2014-09-28T07:33:15Z</time>
      </trkpt>
      <trkpt lat="41.658533" lon="-0.761631">
        <ele>228.077</ele>
        <time>2014-09-28T07:34:01Z</time>
      </trkpt>
      <trkpt lat="41.659101" lon="-0.756938">
        <ele>233.734</ele>
        <time>2014-09-28T07:35:12Z</time>
      </trkpt>
      <trkpt lat="41.659725" lon="-0.754780">
        <ele>234.714</ele>
        <time>2014-09-28T07:35:46Z</time>
      </trkpt>
      <trkpt lat="41.660316" lon="-0.753312">
        <ele>241.054</ele>
        <time>2014-09-28T07:36:16Z</time>
      </trkpt>
      <trkpt lat="41.660484" lon="-0.751560">
        <ele>241.409</ele>
        <time>2014-09-28T07:36:47Z</time>
      </trkpt>
      <trkpt lat="41.661047" lon="-0.750595">
        <ele>243.407</ele>
        <time>2014-09-28T07:37:09Z</time>
      </trkpt>
      <trkpt lat="41.661177" lon="-0.749961">
        <ele>245.348</ele>
        <time>2014-09-28T07:37:22Z</time>
      </trkpt>
      <trkpt lat="41.660467" lon="-0.749681">
        <ele>245.849</ele>
        <time>2014-09-28T07:37:43Z</time>
      </trkpt>
      <trkpt lat="41.660119" lon="-0.749325">
        <ele>246.730</ele>
        <time>2014-09-28T07:37:55Z</time>
      </trkpt>
      <trkpt lat="41.659252" lon="-0.747990">
        <ele>249.134</ele>
        <time>2014-09-28T07:38:28Z</time>
      </trkpt>
      <trkpt lat="41.659658" lon="-0.747494">
        <ele>250.110</ele>
        <time>2014-09-28T07:38:43Z</time>
      </trkpt>
      <trkpt lat="41.659702" lon="-0.747147">
        <ele>250.695</ele>
        <time>2014-09-28T07:38:50Z</time>
      </trkpt>
      <trkpt lat="41.659309" lon="-0.745914">
        <ele>256.852</ele>
        <time>2014-09-28T07:39:19Z</time>
      </trkpt>
      <trkpt lat="41.658648" lon="-0.744764">
        <ele>261.127</ele>
        <time>2014-09-28T07:39:51Z</time>
      </trkpt>
      <trkpt lat="41.658301" lon="-0.744636">
        <ele>264.568</ele>
        <time>2014-09-28T07:40:04Z</time>
      </trkpt>
      <trkpt lat="41.658098" lon="-0.744292">
        <ele>266.414</ele>
        <time>2014-09-28T07:40:16Z</time>
      </trkpt>
      <trkpt lat="41.657665" lon="-0.743069">
        <ele>266.907</ele>
        <time>2014-09-28T07:40:43Z</time>
      </trkpt>
      <trkpt lat="41.656793" lon="-0.743068">
        <ele>275.189</ele>
        <time>2014-09-28T07:41:17Z</time>
      </trkpt>
      <trkpt lat="41.656556" lon="-0.742594">
        <ele>276.030</ele>
        <time>2014-09-28T07:41:30Z</time>
      </trkpt>
      <trkpt lat="41.656248" lon="-0.741214">
        <ele>280.491</ele>
        <time>2014-09-28T07:42:04Z</time>
      </trkpt>
      <trkpt lat="41.655617" lon="-0.741057">
        <ele>275.165</ele>
        <time>2014-09-28T07:42:20Z</time>
      </trkpt>
      <trkpt lat="41.654872" lon="-0.741788">
        <ele>280.431</ele>
        <time>2014-09-28T07:42:49Z</time>
      </trkpt>
      <trkpt lat="41.654656" lon="-0.742681">
        <ele>288.156</ele>
        <time>2014-09-28T07:43:25Z</time>
      </trkpt>
      <trkpt lat="41.654260" lon="-0.742506">
        <ele>295.763</ele>
        <time>2014-09-28T07:44:33Z</time>
      </trkpt>
      <trkpt lat="41.653862" lon="-0.742869">
        <ele>305.812</ele>
        <time>2014-09-28T07:45:30Z</time>
      </trkpt>
      <trkpt lat="41.653840" lon="-0.742707">
        <ele>308.732</ele>
        <time>2014-09-28T07:54:44Z</time>
      </trkpt>
      <trkpt lat="41.653810" lon="-0.742814">
        <ele>307.305</ele>
        <time>2014-09-28T07:54:52Z</time>
      </trkpt>
      <trkpt lat="41.653948" lon="-0.742812">
        <ele>304.907</ele>
        <time>2014-09-28T07:55:07Z</time>
      </trkpt>
      <trkpt lat="41.654275" lon="-0.742475">
        <ele>296.778</ele>
        <time>2014-09-28T07:55:41Z</time>
      </trkpt>
      <trkpt lat="41.654647" lon="-0.742670">
        <ele>288.199</ele>
        <time>2014-09-28T07:56:46Z</time>
      </trkpt>
      <trkpt lat="41.654755" lon="-0.742173">
        <ele>281.890</ele>
        <time>2014-09-28T07:57:49Z</time>
      </trkpt>
      <trkpt lat="41.654238" lon="-0.741601">
        <ele>276.574</ele>
        <time>2014-09-28T07:58:19Z</time>
      </trkpt>
      <trkpt lat="41.653176" lon="-0.741241">
        <ele>276.510</ele>
        <time>2014-09-28T07:58:45Z</time>
      </trkpt>
      <trkpt lat="41.652161" lon="-0.741697">
        <ele>265.575</ele>
        <time>2014-09-28T07:59:09Z</time>
      </trkpt>
      <trkpt lat="41.651693" lon="-0.741678">
        <ele>260.742</ele>
        <time>2014-09-28T07:59:42Z</time>
      </trkpt>
      <trkpt lat="41.649549" lon="-0.738958">
        <ele>247.292</ele>
        <time>2014-09-28T08:00:25Z</time>
      </trkpt>
      <trkpt lat="41.648586" lon="-0.737396">
        <ele>242.473</ele>
        <time>2014-09-28T08:00:49Z</time>
      </trkpt>
      <trkpt lat="41.650104" lon="-0.736675">
        <ele>244.320</ele>
        <time>2014-09-28T08:01:25Z</time>
      </trkpt>
      <trkpt lat="41.651454" lon="-0.735561">
        <ele>246.707</ele>
        <time>2014-09-28T08:02:00Z</time>
      </trkpt>
      <trkpt lat="41.652028" lon="-0.735385">
        <ele>247.286</ele>
        <time>2014-09-28T08:02:10Z</time>
      </trkpt>
      <trkpt lat="41.652731" lon="-0.735543">
        <ele>248.667</ele>
        <time>2014-09-28T08:02:23Z</time>
      </trkpt>
      <trkpt lat="41.653050" lon="-0.735346">
        <ele>249.628</ele>
        <time>2014-09-28T08:02:30Z</time>
      </trkpt>
      <trkpt lat="41.653421" lon="-0.734689">
        <ele>250.192</ele>
        <time>2014-09-28T08:03:24Z</time>
      </trkpt>
      <trkpt lat="41.654061" lon="-0.732845">
        <ele>252.078</ele>
        <time>2014-09-28T08:03:54Z</time>
      </trkpt>
      <trkpt lat="41.654685" lon="-0.731954">
        <ele>253.443</ele>
        <time>2014-09-28T08:04:11Z</time>
      </trkpt>
      <trkpt lat="41.655613" lon="-0.731234">
        <ele>258.720</ele>
        <time>2014-09-28T08:04:34Z</time>
      </trkpt>
      <trkpt lat="41.655974" lon="-0.730726">
        <ele>259.792</ele>
        <time>2014-09-28T08:04:46Z</time>
      </trkpt>
      <trkpt lat="41.656452" lon="-0.729295">
        <ele>261.673</ele>
        <time>2014-09-28T08:05:10Z</time>
      </trkpt>
      <trkpt lat="41.657271" lon="-0.727682">
        <ele>263.520</ele>
        <time>2014-09-28T08:05:45Z</time>
      </trkpt>
      <trkpt lat="41.658690" lon="-0.726092">
        <ele>267.407</ele>
        <time>2014-09-28T08:06:31Z</time>
      </trkpt>
      <trkpt lat="41.659098" lon="-0.725166">
        <ele>268.876</ele>
        <time>2014-09-28T08:06:50Z</time>
      </trkpt>
      <trkpt lat="41.659355" lon="-0.723719">
        <ele>271.227</ele>
        <time>2014-09-28T08:07:15Z</time>
      </trkpt>
      <trkpt lat="41.659347" lon="-0.720879">
        <ele>275.638</ele>
        <time>2014-09-28T08:08:05Z</time>
      </trkpt>
      <trkpt lat="41.660049" lon="-0.719902">
        <ele>278.072</ele>
        <time>2014-09-28T08:08:29Z</time>
      </trkpt>
      <trkpt lat="41.660819" lon="-0.719496">
        <ele>280.848</ele>
        <time>2014-09-28T08:08:49Z</time>
      </trkpt>
      <trkpt lat="41.661333" lon="-0.718753">
        <ele>281.833</ele>
        <time>2014-09-28T08:09:06Z</time>
      </trkpt>
      <trkpt lat="41.661626" lon="-0.716308">
        <ele>285.730</ele>
        <time>2014-09-28T08:09:49Z</time>
      </trkpt>
      <trkpt lat="41.663297" lon="-0.714686">
        <ele>291.949</ele>
        <time>2014-09-28T08:10:37Z</time>
      </trkpt>
      <trkpt lat="41.663858" lon="-0.713178">
        <ele>295.302</ele>
        <time>2014-09-28T08:11:09Z</time>
      </trkpt>
      <trkpt lat="41.664915" lon="-0.712943">
        <ele>297.722</ele>
        <time>2014-09-28T08:11:38Z</time>
      </trkpt>
      <trkpt lat="41.665585" lon="-0.711703">
        <ele>299.107</ele>
        <time>2014-09-28T08:12:05Z</time>
      </trkpt>
      <trkpt lat="41.665817" lon="-0.710710">
        <ele>300.111</ele>
        <time>2014-09-28T08:12:23Z</time>
      </trkpt>
      <trkpt lat="41.665862" lon="-0.708645">
        <ele>302.062</ele>
        <time>2014-09-28T08:12:59Z</time>
      </trkpt>
      <trkpt lat="41.666196" lon="-0.707403">
        <ele>304.933</ele>
        <time>2014-09-28T08:13:24Z</time>
      </trkpt>
      <trkpt lat="41.666392" lon="-0.705247">
        <ele>309.797</ele>
        <time>2014-09-28T08:14:09Z</time>
      </trkpt>
      <trkpt lat="41.666560" lon="-0.704941">
        <ele>312.683</ele>
        <time>2014-09-28T08:14:22Z</time>
      </trkpt>
      <trkpt lat="41.667254" lon="-0.704784">
        <ele>319.348</ele>
        <time>2014-09-28T08:14:54Z</time>
      </trkpt>
      <trkpt lat="41.669216" lon="-0.703856">
        <ele>327.515</ele>
        <time>2014-09-28T08:16:03Z</time>
      </trkpt>
      <trkpt lat="41.669656" lon="-0.703244">
        <ele>329.953</ele>
        <time>2014-09-28T08:16:20Z</time>
      </trkpt>
      <trkpt lat="41.670760" lon="-0.702329">
        <ele>331.804</ele>
        <time>2014-09-28T08:16:52Z</time>
      </trkpt>
      <trkpt lat="41.671258" lon="-0.701123">
        <ele>333.714</ele>
        <time>2014-09-28T08:17:18Z</time>
      </trkpt>
      <trkpt lat="41.673557" lon="-0.699973">
        <ele>340.407</ele>
        <time>2014-09-28T08:19:19Z</time>
      </trkpt>
      <trkpt lat="41.673621" lon="-0.699680">
        <ele>340.952</ele>
        <time>2014-09-28T08:19:25Z</time>
      </trkpt>
      <trkpt lat="41.673299" lon="-0.698042">
        <ele>345.783</ele>
        <time>2014-09-28T08:20:04Z</time>
      </trkpt>
      <trkpt lat="41.672992" lon="-0.697289">
        <ele>344.374</ele>
        <time>2014-09-28T08:20:18Z</time>
      </trkpt>
      <trkpt lat="41.673010" lon="-0.696891">
        <ele>343.838</ele>
        <time>2014-09-28T08:20:25Z</time>
      </trkpt>
      <trkpt lat="41.673745" lon="-0.694937">
        <ele>343.364</ele>
        <time>2014-09-28T08:21:01Z</time>
      </trkpt>
      <trkpt lat="41.675757" lon="-0.692924">
        <ele>349.159</ele>
        <time>2014-09-28T08:22:53Z</time>
      </trkpt>
      <trkpt lat="41.676600" lon="-0.692834">
        <ele>354.446</ele>
        <time>2014-09-28T08:24:51Z</time>
      </trkpt>
      <trkpt lat="41.677742" lon="-0.692245">
        <ele>357.388</ele>
        <time>2014-09-28T08:25:25Z</time>
      </trkpt>
      <trkpt lat="41.678956" lon="-0.692182">
        <ele>361.624</ele>
        <time>2014-09-28T08:25:57Z</time>
      </trkpt>
      <trkpt lat="41.680224" lon="-0.692556">
        <ele>364.526</ele>
        <time>2014-09-28T08:26:30Z</time>
      </trkpt>
      <trkpt lat="41.680864" lon="-0.692256">
        <ele>364.507</ele>
        <time>2014-09-28T08:26:45Z</time>
      </trkpt>
      <trkpt lat="41.681530" lon="-0.691425">
        <ele>366.965</ele>
        <time>2014-09-28T08:27:06Z</time>
      </trkpt>
      <trkpt lat="41.682179" lon="-0.690937">
        <ele>367.486</ele>
        <time>2014-09-28T08:27:23Z</time>
      </trkpt>
      <trkpt lat="41.683389" lon="-0.690739">
        <ele>370.247</ele>
        <time>2014-09-28T08:27:52Z</time>
      </trkpt>
      <trkpt lat="41.683584" lon="-0.690820">
        <ele>371.221</ele>
        <time>2014-09-28T08:27:58Z</time>
      </trkpt>
      <trkpt lat="41.684304" lon="-0.691827">
        <ele>379.957</ele>
        <time>2014-09-28T08:28:35Z</time>
      </trkpt>
      <trkpt lat="41.684918" lon="-0.692279">
        <ele>385.642</ele>
        <time>2014-09-28T08:29:02Z</time>
      </trkpt>
      <trkpt lat="41.686969" lon="-0.694357">
        <ele>402.049</ele>
        <time>2014-09-28T08:30:36Z</time>
      </trkpt>
      <trkpt lat="41.688865" lon="-0.695752">
        <ele>402.925</ele>
        <time>2014-09-28T08:31:32Z</time>
      </trkpt>
      <trkpt lat="41.690308" lon="-0.696149">
        <ele>403.926</ele>
        <time>2014-09-28T08:32:09Z</time>
      </trkpt>
      <trkpt lat="41.690357" lon="-0.697196">
        <ele>404.908</ele>
        <time>2014-09-28T08:32:30Z</time>
      </trkpt>
      <trkpt lat="41.688901" lon="-0.700231">
        <ele>412.107</ele>
        <time>2014-09-28T08:35:42Z</time>
      </trkpt>
      <trkpt lat="41.688480" lon="-0.700763">
        <ele>415.489</ele>
        <time>2014-09-28T08:35:58Z</time>
      </trkpt>
      <trkpt lat="41.687824" lon="-0.701207">
        <ele>418.850</ele>
        <time>2014-09-28T08:36:24Z</time>
      </trkpt>
      <trkpt lat="41.685893" lon="-0.699865">
        <ele>424.641</ele>
        <time>2014-09-28T08:38:14Z</time>
      </trkpt>
      <trkpt lat="41.686664" lon="-0.700332">
        <ele>420.295</ele>
        <time>2014-09-28T08:44:23Z</time>
      </trkpt>
      <trkpt lat="41.687850" lon="-0.701380">
        <ele>419.331</ele>
        <time>2014-09-28T08:45:11Z</time>
      </trkpt>
      <trkpt lat="41.687747" lon="-0.702352">
        <ele>419.336</ele>
        <time>2014-09-28T08:45:33Z</time>
      </trkpt>
      <trkpt lat="41.688984" lon="-0.705090">
        <ele>420.253</ele>
        <time>2014-09-28T08:46:31Z</time>
      </trkpt>
      <trkpt lat="41.688947" lon="-0.705686">
        <ele>416.449</ele>
        <time>2014-09-28T08:46:39Z</time>
      </trkpt>
      <trkpt lat="41.688389" lon="-0.706922">
        <ele>415.402</ele>
        <time>2014-09-28T08:46:57Z</time>
      </trkpt>
      <trkpt lat="41.687845" lon="-0.709220">
        <ele>401.022</ele>
        <time>2014-09-28T08:47:24Z</time>
      </trkpt>
      <trkpt lat="41.687533" lon="-0.709767">
        <ele>400.507</ele>
        <time>2014-09-28T08:47:33Z</time>
      </trkpt>
      <trkpt lat="41.686959" lon="-0.713433">
        <ele>392.891</ele>
        <time>2014-09-28T08:48:16Z</time>
      </trkpt>
      <trkpt lat="41.686210" lon="-0.715060">
        <ele>391.932</ele>
        <time>2014-09-28T08:48:39Z</time>
      </trkpt>
      <trkpt lat="41.686132" lon="-0.715684">
        <ele>388.513</ele>
        <time>2014-09-28T08:48:45Z</time>
      </trkpt>
      <trkpt lat="41.686299" lon="-0.718084">
        <ele>377.557</ele>
        <time>2014-09-28T08:49:05Z</time>
      </trkpt>
      <trkpt lat="41.686852" lon="-0.719204">
        <ele>376.043</ele>
        <time>2014-09-28T08:49:18Z</time>
      </trkpt>
      <trkpt lat="41.687161" lon="-0.720384">
        <ele>375.148</ele>
        <time>2014-09-28T08:49:31Z</time>
      </trkpt>
      <trkpt lat="41.687267" lon="-0.721878">
        <ele>377.985</ele>
        <time>2014-09-28T08:49:49Z</time>
      </trkpt>
      <trkpt lat="41.688032" lon="-0.723284">
        <ele>376.524</ele>
        <time>2014-09-28T08:50:09Z</time>
      </trkpt>
      <trkpt lat="41.688200" lon="-0.724014">
        <ele>372.704</ele>
        <time>2014-09-28T08:50:17Z</time>
      </trkpt>
      <trkpt lat="41.688402" lon="-0.726706">
        <ele>353.914</ele>
        <time>2014-09-28T08:50:43Z</time>
      </trkpt>
      <trkpt lat="41.687864" lon="-0.729262">
        <ele>368.807</ele>
        <time>2014-09-28T08:51:45Z</time>
      </trkpt>
      <trkpt lat="41.687960" lon="-0.730593">
        <ele>372.299</ele>
        <time>2014-09-28T08:52:23Z</time>
      </trkpt>
      <trkpt lat="41.688173" lon="-0.731268">
        <ele>372.270</ele>
        <time>2014-09-28T08:52:38Z</time>
      </trkpt>
      <trkpt lat="41.688979" lon="-0.732890">
        <ele>374.141</ele>
        <time>2014-09-28T08:53:11Z</time>
      </trkpt>
      <trkpt lat="41.689770" lon="-0.735196">
        <ele>372.275</ele>
        <time>2014-09-28T08:53:54Z</time>
      </trkpt>
      <trkpt lat="41.690802" lon="-0.736551">
        <ele>371.751</ele>
        <time>2014-09-28T08:54:44Z</time>
      </trkpt>
      <trkpt lat="41.690626" lon="-0.737057">
        <ele>377.926</ele>
        <time>2014-09-28T08:58:03Z</time>
      </trkpt>
      <trkpt lat="41.690921" lon="-0.736743">
        <ele>372.783</ele>
        <time>2014-09-28T09:01:29Z</time>
      </trkpt>
      <trkpt lat="41.691480" lon="-0.737214">
        <ele>369.324</ele>
        <time>2014-09-28T09:02:53Z</time>
      </trkpt>
      <trkpt lat="41.691006" lon="-0.736746">
        <ele>371.704</ele>
        <time>2014-09-28T09:04:10Z</time>
      </trkpt>
      <trkpt lat="41.691949" lon="-0.737654">
        <ele>368.814</ele>
        <time>2014-09-28T09:19:37Z</time>
      </trkpt>
      <trkpt lat="41.692526" lon="-0.737882">
        <ele>365.907</ele>
        <time>2014-09-28T09:19:49Z</time>
      </trkpt>
      <trkpt lat="41.693365" lon="-0.738497">
        <ele>359.219</ele>
        <time>2014-09-28T09:20:05Z</time>
      </trkpt>
      <trkpt lat="41.693888" lon="-0.739340">
        <ele>352.540</ele>
        <time>2014-09-28T09:20:19Z</time>
      </trkpt>
      <trkpt lat="41.694648" lon="-0.742528">
        <ele>332.331</ele>
        <time>2014-09-28T09:20:59Z</time>
      </trkpt>
      <trkpt lat="41.694775" lon="-0.744473">
        <ele>325.595</ele>
        <time>2014-09-28T09:21:23Z</time>
      </trkpt>
      <trkpt lat="41.694448" lon="-0.745783">
        <ele>322.771</ele>
        <time>2014-09-28T09:21:39Z</time>
      </trkpt>
      <trkpt lat="41.694073" lon="-0.746105">
        <ele>321.286</ele>
        <time>2014-09-28T09:21:47Z</time>
      </trkpt>
      <trkpt lat="41.693258" lon="-0.745925">
        <ele>319.353</ele>
        <time>2014-09-28T09:22:02Z</time>
      </trkpt>
      <trkpt lat="41.693002" lon="-0.746124">
        <ele>317.482</ele>
        <time>2014-09-28T09:22:07Z</time>
      </trkpt>
      <trkpt lat="41.692730" lon="-0.747305">
        <ele>315.543</ele>
        <time>2014-09-28T09:22:22Z</time>
      </trkpt>
      <trkpt lat="41.692879" lon="-0.748653">
        <ele>313.117</ele>
        <time>2014-09-28T09:22:43Z</time>
      </trkpt>
      <trkpt lat="41.692782" lon="-0.750283">
        <ele>311.607</ele>
        <time>2014-09-28T09:23:04Z</time>
      </trkpt>
      <trkpt lat="41.693379" lon="-0.751980">
        <ele>302.515</ele>
        <time>2014-09-28T09:23:28Z</time>
      </trkpt>
      <trkpt lat="41.693426" lon="-0.753098">
        <ele>297.746</ele>
        <time>2014-09-28T09:23:42Z</time>
      </trkpt>
      <trkpt lat="41.693096" lon="-0.753796">
        <ele>295.327</ele>
        <time>2014-09-28T09:23:54Z</time>
      </trkpt>
      <trkpt lat="41.692811" lon="-0.755128">
        <ele>291.971</ele>
        <time>2014-09-28T09:24:10Z</time>
      </trkpt>
      <trkpt lat="41.692415" lon="-0.758717">
        <ele>274.197</ele>
        <time>2014-09-28T09:24:46Z</time>
      </trkpt>
      <trkpt lat="41.691305" lon="-0.762536">
        <ele>260.722</ele>
        <time>2014-09-28T09:25:18Z</time>
      </trkpt>
      <trkpt lat="41.690645" lon="-0.764175">
        <ele>257.879</ele>
        <time>2014-09-28T09:25:35Z</time>
      </trkpt>
      <trkpt lat="41.690400" lon="-0.765292">
        <ele>259.732</ele>
        <time>2014-09-28T09:25:51Z</time>
      </trkpt>
      <trkpt lat="41.690208" lon="-0.765665">
        <ele>258.392</ele>
        <time>2014-09-28T09:25:58Z</time>
      </trkpt>
      <trkpt lat="41.687555" lon="-0.768583">
        <ele>240.511</ele>
        <time>2014-09-28T09:26:57Z</time>
      </trkpt>
      <trkpt lat="41.687426" lon="-0.768928">
        <ele>240.007</ele>
        <time>2014-09-28T09:27:05Z</time>
      </trkpt>
      <trkpt lat="41.686269" lon="-0.770076">
        <ele>235.740</ele>
        <time>2014-09-28T09:27:29Z</time>
      </trkpt>
      <trkpt lat="41.685778" lon="-0.770915">
        <ele>233.711</ele>
        <time>2014-09-28T09:27:42Z</time>
      </trkpt>
      <trkpt lat="41.686114" lon="-0.771308">
        <ele>233.752</ele>
        <time>2014-09-28T09:27:56Z</time>
      </trkpt>
      <trkpt lat="41.685658" lon="-0.772615">
        <ele>231.356</ele>
        <time>2014-09-28T09:28:21Z</time>
      </trkpt>
      <trkpt lat="41.686410" lon="-0.773096">
        <ele>231.322</ele>
        <time>2014-09-28T09:28:45Z</time>
      </trkpt>
      <trkpt lat="41.687294" lon="-0.773212">
        <ele>230.987</ele>
        <time>2014-09-28T09:29:06Z</time>
      </trkpt>
      <trkpt lat="41.687328" lon="-0.773941">
        <ele>229.974</ele>
        <time>2014-09-28T09:29:18Z</time>
      </trkpt>
      <trkpt lat="41.687065" lon="-0.775318">
        <ele>226.195</ele>
        <time>2014-09-28T09:29:36Z</time>
      </trkpt>
      <trkpt lat="41.687301" lon="-0.776842">
        <ele>223.649</ele>
        <time>2014-09-28T09:29:54Z</time>
      </trkpt>
      <trkpt lat="41.687129" lon="-0.777294">
        <ele>223.223</ele>
        <time>2014-09-28T09:30:02Z</time>
      </trkpt>
      <trkpt lat="41.687169" lon="-0.777584">
        <ele>223.607</ele>
        <time>2014-09-28T09:30:07Z</time>
      </trkpt>
      <trkpt lat="41.687740" lon="-0.778347">
        <ele>223.286</ele>
        <time>2014-09-28T09:30:22Z</time>
      </trkpt>
      <trkpt lat="41.688418" lon="-0.779931">
        <ele>224.677</ele>
        <time>2014-09-28T09:30:47Z</time>
      </trkpt>
      <trkpt lat="41.688378" lon="-0.780888">
        <ele>224.648</ele>
        <time>2014-09-28T09:31:01Z</time>
      </trkpt>
      <trkpt lat="41.688218" lon="-0.781152">
        <ele>224.612</ele>
        <time>2014-09-28T09:31:06Z</time>
      </trkpt>
      <trkpt lat="41.687798" lon="-0.781318">
        <ele>222.748</ele>
        <time>2014-09-28T09:31:14Z</time>
      </trkpt>
      <trkpt lat="41.687561" lon="-0.781615">
        <ele>221.723</ele>
        <time>2014-09-28T09:31:20Z</time>
      </trkpt>
      <trkpt lat="41.687362" lon="-0.782963">
        <ele>220.340</ele>
        <time>2014-09-28T09:31:37Z</time>
      </trkpt>
      <trkpt lat="41.687145" lon="-0.785154">
        <ele>220.324</ele>
        <time>2014-09-28T09:32:07Z</time>
      </trkpt>
      <trkpt lat="41.687312" lon="-0.786656">
        <ele>220.304</ele>
        <time>2014-09-28T09:32:27Z</time>
      </trkpt>
      <trkpt lat="41.686904" lon="-0.790067">
        <ele>222.714</ele>
        <time>2014-09-28T09:33:15Z</time>
      </trkpt>
      <trkpt lat="41.686400" lon="-0.791982">
        <ele>220.807</ele>
        <time>2014-09-28T09:33:41Z</time>
      </trkpt>
      <trkpt lat="41.686414" lon="-0.793937">
        <ele>219.849</ele>
        <time>2014-09-28T09:34:06Z</time>
      </trkpt>
      <trkpt lat="41.686130" lon="-0.796240">
        <ele>222.790</ele>
        <time>2014-09-28T09:34:37Z</time>
      </trkpt>
      <trkpt lat="41.685611" lon="-0.797068">
        <ele>221.211</ele>
        <time>2014-09-28T09:34:51Z</time>
      </trkpt>
      <trkpt lat="41.683833" lon="-0.797725">
        <ele>218.885</ele>
        <time>2014-09-28T09:35:21Z</time>
      </trkpt>
      <trkpt lat="41.683138" lon="-0.798633">
        <ele>218.461</ele>
        <time>2014-09-28T09:35:38Z</time>
      </trkpt>
      <trkpt lat="41.683114" lon="-0.799069">
        <ele>218.446</ele>
        <time>2014-09-28T09:35:44Z</time>
      </trkpt>
      <trkpt lat="41.684343" lon="-0.801354">
        <ele>219.843</ele>
        <time>2014-09-28T09:36:22Z</time>
      </trkpt>
      <trkpt lat="41.684290" lon="-0.801911">
        <ele>219.824</ele>
        <time>2014-09-28T09:36:31Z</time>
      </trkpt>
      <trkpt lat="41.681980" lon="-0.803973">
        <ele>219.304</ele>
        <time>2014-09-28T09:37:21Z</time>
      </trkpt>
      <trkpt lat="41.678070" lon="-0.804968">
        <ele>217.414</ele>
        <time>2014-09-28T09:38:31Z</time>
      </trkpt>
      <trkpt lat="41.677928" lon="-0.805161">
        <ele>217.407</ele>
        <time>2014-09-28T09:38:37Z</time>
      </trkpt>
      <trkpt lat="41.678562" lon="-0.811041">
        <ele>217.499</ele>
        <time>2014-09-28T09:40:00Z</time>
      </trkpt>
      <trkpt lat="41.678396" lon="-0.814987">
        <ele>216.410</ele>
        <time>2014-09-28T09:40:54Z</time>
      </trkpt>
      <trkpt lat="41.678158" lon="-0.815507">
        <ele>216.471</ele>
        <time>2014-09-28T09:41:05Z</time>
      </trkpt>
      <trkpt lat="41.677998" lon="-0.818491">
        <ele>217.985</ele>
        <time>2014-09-28T09:41:51Z</time>
      </trkpt>
      <trkpt lat="41.677252" lon="-0.820437">
        <ele>216.481</ele>
        <time>2014-09-28T09:42:24Z</time>
      </trkpt>
      <trkpt lat="41.676092" lon="-0.822715">
        <ele>216.416</ele>
        <time>2014-09-28T09:43:01Z</time>
      </trkpt>
      <trkpt lat="41.674884" lon="-0.827667">
        <ele>216.453</ele>
        <time>2014-09-28T09:44:14Z</time>
      </trkpt>
      <trkpt lat="41.675195" lon="-0.829018">
        <ele>216.477</ele>
        <time>2014-09-28T09:44:35Z</time>
      </trkpt>
      <trkpt lat="41.675566" lon="-0.829379">
        <ele>216.061</ele>
        <time>2014-09-28T09:44:44Z</time>
      </trkpt>
      <trkpt lat="41.676173" lon="-0.829145">
        <ele>215.027</ele>
        <time>2014-09-28T09:44:56Z</time>
      </trkpt>
      <trkpt lat="41.676309" lon="-0.829291">
        <ele>215.007</ele>
        <time>2014-09-28T09:44:59Z</time>
      </trkpt>
      <trkpt lat="41.676361" lon="-0.829844">
        <ele>214.054</ele>
        <time>2014-09-28T09:45:07Z</time>
      </trkpt>
      <trkpt lat="41.675713" lon="-0.829671">
        <ele>216.035</ele>
        <time>2014-09-28T09:45:20Z</time>
      </trkpt>
      <trkpt lat="41.674441" lon="-0.830022">
        <ele>219.376</ele>
        <time>2014-09-28T09:45:44Z</time>
      </trkpt>
      <trkpt lat="41.673915" lon="-0.830321">
        <ele>217.440</ele>
        <time>2014-09-28T09:45:53Z</time>
      </trkpt>
      <trkpt lat="41.673208" lon="-0.831422">
        <ele>214.576</ele>
        <time>2014-09-28T09:46:09Z</time>
      </trkpt>
      <trkpt lat="41.672852" lon="-0.832819">
        <ele>211.631</ele>
        <time>2014-09-28T09:46:24Z</time>
      </trkpt>
      <trkpt lat="41.672725" lon="-0.834259">
        <ele>207.818</ele>
        <time>2014-09-28T09:46:37Z</time>
      </trkpt>
      <trkpt lat="41.672301" lon="-0.835808">
        <ele>204.464</ele>
        <time>2014-09-28T09:46:53Z</time>
      </trkpt>
      <trkpt lat="41.670485" lon="-0.838587">
        <ele>201.506</ele>
        <time>2014-09-28T09:47:34Z</time>
      </trkpt>
      <trkpt lat="41.670372" lon="-0.839199">
        <ele>201.116</ele>
        <time>2014-09-28T09:47:42Z</time>
      </trkpt>
      <trkpt lat="41.670560" lon="-0.839915">
        <ele>202.507</ele>
        <time>2014-09-28T09:47:51Z</time>
      </trkpt>
      <trkpt lat="41.670687" lon="-0.840225">
        <ele>203.523</ele>
        <time>2014-09-28T09:47:56Z</time>
      </trkpt>
      <trkpt lat="41.670971" lon="-0.840292">
        <ele>201.514</ele>
        <time>2014-09-28T09:48:02Z</time>
      </trkpt>
      <trkpt lat="41.671064" lon="-0.840475">
        <ele>201.155</ele>
        <time>2014-09-28T09:48:05Z</time>
      </trkpt>
      <trkpt lat="41.671109" lon="-0.840903">
        <ele>199.689</ele>
        <time>2014-09-28T09:48:10Z</time>
      </trkpt>
      <trkpt lat="41.670850" lon="-0.841357">
        <ele>196.745</ele>
        <time>2014-09-28T09:48:17Z</time>
      </trkpt>
      <trkpt lat="41.669742" lon="-0.841053">
        <ele>197.750</ele>
        <time>2014-09-28T09:48:37Z</time>
      </trkpt>
      <trkpt lat="41.668627" lon="-0.841110">
        <ele>197.277</ele>
        <time>2014-09-28T09:48:57Z</time>
      </trkpt>
      <trkpt lat="41.668506" lon="-0.841367">
        <ele>198.756</ele>
        <time>2014-09-28T09:49:03Z</time>
      </trkpt>
      <trkpt lat="41.668537" lon="-0.842458">
        <ele>200.159</ele>
        <time>2014-09-28T09:49:21Z</time>
      </trkpt>
      <trkpt lat="41.668442" lon="-0.842740">
        <ele>200.614</ele>
        <time>2014-09-28T09:49:28Z</time>
      </trkpt>
      <trkpt lat="41.668044" lon="-0.843078">
        <ele>200.107</ele>
        <time>2014-09-28T09:49:39Z</time>
      </trkpt>
      <trkpt lat="41.667240" lon="-0.843721">
        <ele>200.172</ele>
        <time>2014-09-28T09:49:59Z</time>
      </trkpt>
      <trkpt lat="41.666469" lon="-0.844014">
        <ele>202.083</ele>
        <time>2014-09-28T09:50:17Z</time>
      </trkpt>
      <trkpt lat="41.666233" lon="-0.844248">
        <ele>199.124</ele>
        <time>2014-09-28T09:50:24Z</time>
      </trkpt>
      <trkpt lat="41.665814" lon="-0.843561">
        <ele>195.858</ele>
        <time>2014-09-28T09:50:44Z</time>
      </trkpt>
      <trkpt lat="41.664816" lon="-0.844131">
        <ele>195.854</ele>
        <time>2014-09-28T09:51:09Z</time>
      </trkpt>
      <trkpt lat="41.663416" lon="-0.845979">
        <ele>195.369</ele>
        <time>2014-09-28T09:51:45Z</time>
      </trkpt>
      <trkpt lat="41.661693" lon="-0.847098">
        <ele>193.836</ele>
        <time>2014-09-28T09:52:21Z</time>
      </trkpt>
      <trkpt lat="41.660508" lon="-0.847689">
        <ele>194.844</ele>
        <time>2014-09-28T09:52:46Z</time>
      </trkpt>
      <trkpt lat="41.659465" lon="-0.848793">
        <ele>195.305</ele>
        <time>2014-09-28T09:53:12Z</time>
      </trkpt>
      <trkpt lat="41.659043" lon="-0.848750">
        <ele>195.315</ele>
        <time>2014-09-28T09:53:20Z</time>
      </trkpt>
      <trkpt lat="41.657994" lon="-0.849093">
        <ele>194.807</ele>
        <time>2014-09-28T09:53:40Z</time>
      </trkpt>
      <trkpt lat="41.655536" lon="-0.850493">
        <ele>195.311</ele>
        <time>2014-09-28T09:54:26Z</time>
      </trkpt>
      <trkpt lat="41.653386" lon="-0.849897">
        <ele>195.882</ele>
        <time>2014-09-28T09:55:05Z</time>
      </trkpt>
      <trkpt lat="41.652027" lon="-0.849925">
        <ele>196.743</ele>
        <time>2014-09-28T09:55:29Z</time>
      </trkpt>
      <trkpt lat="41.651904" lon="-0.850075">
        <ele>196.777</ele>
        <time>2014-09-28T09:55:33Z</time>
      </trkpt>
      <trkpt lat="41.651809" lon="-0.850930">
        <ele>196.763</ele>
        <time>2014-09-28T09:55:45Z</time>
      </trkpt>
      <trkpt lat="41.652012" lon="-0.852499">
        <ele>195.328</ele>
        <time>2014-09-28T09:56:06Z</time>
      </trkpt>
      <trkpt lat="41.651837" lon="-0.853636">
        <ele>194.345</ele>
        <time>2014-09-28T09:56:20Z</time>
      </trkpt>
      <trkpt lat="41.651972" lon="-0.854435">
        <ele>195.344</ele>
        <time>2014-09-28T09:56:30Z</time>
      </trkpt>
      <trkpt lat="41.652268" lon="-0.854912">
        <ele>197.705</ele>
        <time>2014-09-28T09:56:40Z</time>
      </trkpt>
      <trkpt lat="41.653457" lon="-0.859209">
        <ele>195.815</ele>
        <time>2014-09-28T09:57:46Z</time>
      </trkpt>
      <trkpt lat="41.655216" lon="-0.866637">
        <ele>197.707</ele>
        <time>2014-09-28T10:00:24Z</time>
      </trkpt>
      <trkpt lat="41.656507" lon="-0.869733">
        <ele>200.131</ele>
        <time>2014-09-28T10:01:19Z</time>
      </trkpt>
      <trkpt lat="41.657604" lon="-0.873053">
        <ele>198.732</ele>
        <time>2014-09-28T10:02:58Z</time>
      </trkpt>
      <trkpt lat="41.657828" lon="-0.873309">
        <ele>199.133</ele>
        <time>2014-09-28T10:03:04Z</time>
      </trkpt>
      <trkpt lat="41.658202" lon="-0.873440">
        <ele>200.157</ele>
        <time>2014-09-28T10:03:16Z</time>
      </trkpt>
      <trkpt lat="41.658370" lon="-0.874165">
        <ele>203.563</ele>
        <time>2014-09-28T10:03:48Z</time>
      </trkpt>
      <trkpt lat="41.658357" lon="-0.875409">
        <ele>199.648</ele>
        <time>2014-09-28T10:04:32Z</time>
      </trkpt>
      <trkpt lat="41.658624" lon="-0.876662">
        <ele>196.785</ele>
        <time>2014-09-28T10:04:45Z</time>
      </trkpt>
      <trkpt lat="41.659127" lon="-0.877672">
        <ele>196.735</ele>
        <time>2014-09-28T10:04:59Z</time>
      </trkpt>
      <trkpt lat="41.660412" lon="-0.879401">
        <ele>195.386</ele>
        <time>2014-09-28T10:05:28Z</time>
      </trkpt>
      <trkpt lat="41.660766" lon="-0.880342">
        <ele>195.314</ele>
        <time>2014-09-28T10:05:50Z</time>
      </trkpt>
      <trkpt lat="41.660203" lon="-0.881155">
        <ele>199.107</ele>
        <time>2014-09-28T10:06:17Z</time>
      </trkpt>
      <trkpt lat="41.660194" lon="-0.881362">
        <ele>198.740</ele>
        <time>2014-09-28T10:06:24Z</time>
      </trkpt>
      <trkpt lat="41.660454" lon="-0.881417">
        <ele>198.721</ele>
        <time>2014-09-28T10:06:45Z</time>
      </trkpt>
      <trkpt lat="41.660998" lon="-0.882054">
        <ele>198.782</ele>
        <time>2014-09-28T10:08:40Z</time>
      </trkpt>
      <trkpt lat="41.661347" lon="-0.885266">
        <ele>198.726</ele>
        <time>2014-09-28T10:09:28Z</time>
      </trkpt>
      <trkpt lat="41.661266" lon="-0.885768">
        <ele>198.272</ele>
        <time>2014-09-28T10:09:36Z</time>
      </trkpt>
      <trkpt lat="41.661435" lon="-0.886539">
        <ele>198.267</ele>
        <time>2014-09-28T10:09:47Z</time>
      </trkpt>
      <trkpt lat="41.661751" lon="-0.886828">
        <ele>198.744</ele>
        <time>2014-09-28T10:09:57Z</time>
      </trkpt>
      <trkpt lat="41.662229" lon="-0.888190">
        <ele>199.633</ele>
        <time>2014-09-28T10:10:19Z</time>
      </trkpt>
      <trkpt lat="41.662306" lon="-0.888621">
        <ele>200.623</ele>
        <time>2014-09-28T10:10:26Z</time>
      </trkpt>
      <trkpt lat="41.662189" lon="-0.889519">
        <ele>202.015</ele>
        <time>2014-09-28T10:11:19Z</time>
      </trkpt>
      <trkpt lat="41.634690" lon="-0.873943">
        <ele>210.884</ele>
        <time>2014-04-10T07:37:44Z</time>
      </trkpt>
      <trkpt lat="41.634145" lon="-0.873995">
        <ele>186.807</ele>
        <time>2014-04-10T07:37:58Z</time>
      </trkpt>
      <trkpt lat="41.633291" lon="-0.873236">
        <ele>177.617</ele>
        <time>2014-04-10T07:38:23Z</time>
      </trkpt>
      <trkpt lat="41.633020" lon="-0.872487">
        <ele>192.807</ele>
        <time>2014-04-10T07:38:37Z</time>
      </trkpt>
      <trkpt lat="41.632955" lon="-0.871509">
        <ele>217.014</ele>
        <time>2014-04-10T07:38:54Z</time>
      </trkpt>
      <trkpt lat="41.632556" lon="-0.871058">
        <ele>194.823</ele>
        <time>2014-04-10T07:39:01Z</time>
      </trkpt>
      <trkpt lat="41.631017" lon="-0.869960">
        <ele>194.671</ele>
        <time>2014-04-10T07:39:34Z</time>
      </trkpt>
      <trkpt lat="41.630131" lon="-0.869506">
        <ele>205.814</ele>
        <time>2014-04-10T07:39:54Z</time>
      </trkpt>
      <trkpt lat="41.629849" lon="-0.868785">
        <ele>207.861</ele>
        <time>2014-04-10T07:40:08Z</time>
      </trkpt>
      <trkpt lat="41.629886" lon="-0.868480">
        <ele>207.827</ele>
        <time>2014-04-10T07:40:14Z</time>
      </trkpt>
      <trkpt lat="41.630171" lon="-0.868121">
        <ele>204.299</ele>
        <time>2014-04-10T07:40:24Z</time>
      </trkpt>
      <trkpt lat="41.629913" lon="-0.867920">
        <ele>204.623</ele>
        <time>2014-04-10T07:41:10Z</time>
      </trkpt>
      <trkpt lat="41.628580" lon="-0.868573">
        <ele>210.483</ele>
        <time>2014-04-10T07:41:36Z</time>
      </trkpt>
      <trkpt lat="41.627637" lon="-0.868686">
        <ele>214.011</ele>
        <time>2014-04-10T07:41:52Z</time>
      </trkpt>
      <trkpt lat="41.625413" lon="-0.868459">
        <ele>220.007</ele>
        <time>2014-04-10T07:42:29Z</time>
      </trkpt>
      <trkpt lat="41.624883" lon="-0.867936">
        <ele>221.858</ele>
        <time>2014-04-10T07:42:41Z</time>
      </trkpt>
      <trkpt lat="41.624571" lon="-0.868008">
        <ele>222.437</ele>
        <time>2014-04-10T07:42:47Z</time>
      </trkpt>
      <trkpt lat="41.624398" lon="-0.868189">
        <ele>223.085</ele>
        <time>2014-04-10T07:42:52Z</time>
      </trkpt>
      <trkpt lat="41.623616" lon="-0.871452">
        <ele>225.438</ele>
        <time>2014-04-10T07:43:42Z</time>
      </trkpt>
      <trkpt lat="41.623179" lon="-0.872569">
        <ele>223.225</ele>
        <time>2014-04-10T07:44:00Z</time>
      </trkpt>
      <trkpt lat="41.623031" lon="-0.872345">
        <ele>225.051</ele>
        <time>2014-04-10T07:44:08Z</time>
      </trkpt>
      <trkpt lat="41.622983" lon="-0.871735">
        <ele>229.083</ele>
        <time>2014-04-10T07:44:22Z</time>
      </trkpt>
      <trkpt lat="41.622531" lon="-0.872007">
        <ele>234.228</ele>
        <time>2014-04-10T07:44:40Z</time>
      </trkpt>
      <trkpt lat="41.622274" lon="-0.871198">
        <ele>236.889</ele>
        <time>2014-04-10T07:45:00Z</time>
      </trkpt>
      <trkpt lat="41.620936" lon="-0.869644">
        <ele>236.417</ele>
        <time>2014-04-10T07:45:38Z</time>
      </trkpt>
      <trkpt lat="41.620633" lon="-0.869506">
        <ele>236.807</ele>
        <time>2014-04-10T07:45:43Z</time>
      </trkpt>
      <trkpt lat="41.620028" lon="-0.869775">
        <ele>236.478</ele>
        <time>2014-04-10T07:45:53Z</time>
      </trkpt>
      <trkpt lat="41.618860" lon="-0.871006">
        <ele>235.287</ele>
        <time>2014-04-10T07:46:15Z</time>
      </trkpt>
      <trkpt lat="41.618532" lon="-0.871053">
        <ele>235.445</ele>
        <time>2014-04-10T07:46:20Z</time>
      </trkpt>
      <trkpt lat="41.618246" lon="-0.870843">
        <ele>235.638</ele>
        <time>2014-04-10T07:46:25Z</time>
      </trkpt>
      <trkpt lat="41.617361" lon="-0.869251">
        <ele>236.265</ele>
        <time>2014-04-10T07:46:47Z</time>
      </trkpt>
      <trkpt lat="41.617193" lon="-0.868302">
        <ele>236.051</ele>
        <time>2014-04-10T07:46:58Z</time>
      </trkpt>
      <trkpt lat="41.617304" lon="-0.867828">
        <ele>236.873</ele>
        <time>2014-04-10T07:47:03Z</time>
      </trkpt>
      <trkpt lat="41.616883" lon="-0.866370">
        <ele>235.029</ele>
        <time>2014-04-10T07:47:19Z</time>
      </trkpt>
      <trkpt lat="41.616616" lon="-0.862585">
        <ele>234.000</ele>
        <time>2014-04-10T07:48:03Z</time>
      </trkpt>
      <trkpt lat="41.616416" lon="-0.862135">
        <ele>234.620</ele>
        <time>2014-04-10T07:48:09Z</time>
      </trkpt>
      <trkpt lat="41.613414" lon="-0.860750">
        <ele>237.807</ele>
        <time>2014-04-10T07:48:54Z</time>
      </trkpt>
      <trkpt lat="41.613015" lon="-0.860423">
        <ele>236.468</ele>
        <time>2014-04-10T07:49:01Z</time>
      </trkpt>
      <trkpt lat="41.612325" lon="-0.859450">
        <ele>236.027</ele>
        <time>2014-04-10T07:49:16Z</time>
      </trkpt>
      <trkpt lat="41.611922" lon="-0.858101">
        <ele>236.445</ele>
        <time>2014-04-10T07:49:32Z</time>
      </trkpt>
      <trkpt lat="41.611342" lon="-0.857039">
        <ele>235.068</ele>
        <time>2014-04-10T07:49:47Z</time>
      </trkpt>
      <trkpt lat="41.610669" lon="-0.856520">
        <ele>233.655</ele>
        <time>2014-04-10T07:50:02Z</time>
      </trkpt>
      <trkpt lat="41.610583" lon="-0.856099">
        <ele>233.241</ele>
        <time>2014-04-10T07:50:08Z</time>
      </trkpt>
      <trkpt lat="41.610761" lon="-0.855646">
        <ele>229.073</ele>
        <time>2014-04-10T07:50:16Z</time>
      </trkpt>
      <trkpt lat="41.610558" lon="-0.854504">
        <ele>220.452</ele>
        <time>2014-04-10T07:50:26Z</time>
      </trkpt>
      <trkpt lat="41.610603" lon="-0.853764">
        <ele>219.453</ele>
        <time>2014-04-10T07:50:33Z</time>
      </trkpt>
      <trkpt lat="41.611363" lon="-0.852265">
        <ele>218.608</ele>
        <time>2014-04-10T07:50:53Z</time>
      </trkpt>
      <trkpt lat="41.611424" lon="-0.851787">
        <ele>218.807</ele>
        <time>2014-04-10T07:50:59Z</time>
      </trkpt>
      <trkpt lat="41.610792" lon="-0.850972">
        <ele>217.611</ele>
        <time>2014-04-10T07:51:12Z</time>
      </trkpt>
      <trkpt lat="41.610652" lon="-0.850460">
        <ele>218.060</ele>
        <time>2014-04-10T07:51:18Z</time>
      </trkpt>
      <trkpt lat="41.610799" lon="-0.849419">
        <ele>218.238</ele>
        <time>2014-04-10T07:51:29Z</time>
      </trkpt>
      <trkpt lat="41.610698" lon="-0.848478">
        <ele>218.811</ele>
        <time>2014-04-10T07:51:40Z</time>
      </trkpt>
      <trkpt lat="41.609699" lon="-0.846917">
        <ele>219.278</ele>
        <time>2014-04-10T07:52:13Z</time>
      </trkpt>
      <trkpt lat="41.609553" lon="-0.845926">
        <ele>220.294</ele>
        <time>2014-04-10T07:52:23Z</time>
      </trkpt>
      <trkpt lat="41.608942" lon="-0.845026">
        <ele>219.626</ele>
        <time>2014-04-10T07:52:35Z</time>
      </trkpt>
      <trkpt lat="41.607989" lon="-0.844677">
        <ele>219.045</ele>
        <time>2014-04-10T07:52:48Z</time>
      </trkpt>
      <trkpt lat="41.607123" lon="-0.844759">
        <ele>220.047</ele>
        <time>2014-04-10T07:53:01Z</time>
      </trkpt>
      <trkpt lat="41.605579" lon="-0.845229">
        <ele>220.211</ele>
        <time>2014-04-10T07:53:24Z</time>
      </trkpt>
      <trkpt lat="41.604978" lon="-0.845083">
        <ele>219.807</ele>
        <time>2014-04-10T07:53:33Z</time>
      </trkpt>
      <trkpt lat="41.604770" lon="-0.844837">
        <ele>219.660</ele>
        <time>2014-04-10T07:53:37Z</time>
      </trkpt>
      <trkpt lat="41.602644" lon="-0.839218">
        <ele>217.849</ele>
        <time>2014-04-10T07:54:43Z</time>
      </trkpt>
      <trkpt lat="41.599495" lon="-0.831878">
        <ele>209.457</ele>
        <time>2014-04-10T07:56:25Z</time>
      </trkpt>
      <trkpt lat="41.599452" lon="-0.830472">
        <ele>202.470</ele>
        <time>2014-04-10T07:56:47Z</time>
      </trkpt>
      <trkpt lat="41.599857" lon="-0.830508">
        <ele>202.297</ele>
        <time>2014-04-10T07:56:54Z</time>
      </trkpt>
      <trkpt lat="41.601370" lon="-0.831631">
        <ele>205.023</ele>
        <time>2014-04-10T07:57:54Z</time>
      </trkpt>
      <trkpt lat="41.601528" lon="-0.831591">
        <ele>204.835</ele>
        <time>2014-04-10T07:57:58Z</time>
      </trkpt>
      <trkpt lat="41.602299" lon="-0.830565">
        <ele>202.689</ele>
        <time>2014-04-10T07:58:22Z</time>
      </trkpt>
      <trkpt lat="41.602872" lon="-0.830318">
        <ele>201.606</ele>
        <time>2014-04-10T07:58:34Z</time>
      </trkpt>
      <trkpt lat="41.603178" lon="-0.829732">
        <ele>204.626</ele>
        <time>2014-04-10T07:58:44Z</time>
      </trkpt>
      <trkpt lat="41.605051" lon="-0.827510">
        <ele>196.207</ele>
        <time>2014-04-10T07:59:27Z</time>
      </trkpt>
      <trkpt lat="41.605718" lon="-0.827068">
        <ele>193.224</ele>
        <time>2014-04-10T07:59:44Z</time>
      </trkpt>
      <trkpt lat="41.607184" lon="-0.825115">
        <ele>190.663</ele>
        <time>2014-04-10T08:00:19Z</time>
      </trkpt>
      <trkpt lat="41.607454" lon="-0.825033">
        <ele>190.621</ele>
        <time>2014-04-10T08:00:26Z</time>
      </trkpt>
      <trkpt lat="41.607972" lon="-0.824366">
        <ele>189.284</ele>
        <time>2014-04-10T08:00:40Z</time>
      </trkpt>
      <trkpt lat="41.608315" lon="-0.823645">
        <ele>189.051</ele>
        <time>2014-04-10T08:00:51Z</time>
      </trkpt>
      <trkpt lat="41.608249" lon="-0.822332">
        <ele>188.217</ele>
        <time>2014-04-10T08:01:06Z</time>
      </trkpt>
      <trkpt lat="41.608390" lon="-0.821932">
        <ele>187.269</ele>
        <time>2014-04-10T08:01:11Z</time>
      </trkpt>
      <trkpt lat="41.608847" lon="-0.821418">
        <ele>185.065</ele>
        <time>2014-04-10T08:01:20Z</time>
      </trkpt>
      <trkpt lat="41.609578" lon="-0.821407">
        <ele>185.468</ele>
        <time>2014-04-10T08:01:31Z</time>
      </trkpt>
      <trkpt lat="41.610753" lon="-0.821068">
        <ele>183.014</ele>
        <time>2014-04-10T08:01:48Z</time>
      </trkpt>
      <trkpt lat="41.613404" lon="-0.820754">
        <ele>186.807</ele>
        <time>2014-04-10T08:02:27Z</time>
      </trkpt>
      <trkpt lat="41.613601" lon="-0.820341">
        <ele>186.852</ele>
        <time>2014-04-10T08:02:33Z</time>
      </trkpt>
      <trkpt lat="41.613651" lon="-0.818411">
        <ele>186.841</ele>
        <time>2014-04-10T08:02:53Z</time>
      </trkpt>
      <trkpt lat="41.613962" lon="-0.816007">
        <ele>188.899</ele>
        <time>2014-04-10T08:03:20Z</time>
      </trkpt>
      <trkpt lat="41.614159" lon="-0.815731">
        <ele>190.692</ele>
        <time>2014-04-10T08:03:26Z</time>
      </trkpt>
      <trkpt lat="41.615740" lon="-0.816467">
        <ele>191.849</ele>
        <time>2014-04-10T08:03:59Z</time>
      </trkpt>
      <trkpt lat="41.615905" lon="-0.816370">
        <ele>190.275</ele>
        <time>2014-04-10T08:04:03Z</time>
      </trkpt>
      <trkpt lat="41.615930" lon="-0.815305">
        <ele>187.067</ele>
        <time>2014-04-10T08:04:15Z</time>
      </trkpt>
      <trkpt lat="41.616641" lon="-0.812031">
        <ele>187.833</ele>
        <time>2014-04-10T08:04:56Z</time>
      </trkpt>
      <trkpt lat="41.617047" lon="-0.811027">
        <ele>187.423</ele>
        <time>2014-04-10T08:05:12Z</time>
      </trkpt>
      <trkpt lat="41.618274" lon="-0.809841">
        <ele>186.815</ele>
        <time>2014-04-10T08:05:38Z</time>
      </trkpt>
      <trkpt lat="41.619264" lon="-0.809810">
        <ele>184.007</ele>
        <time>2014-04-10T08:06:03Z</time>
      </trkpt>
      <trkpt lat="41.619992" lon="-0.809958">
        <ele>180.679</ele>
        <time>2014-04-10T08:06:19Z</time>
      </trkpt>
      <trkpt lat="41.620621" lon="-0.809877">
        <ele>181.458</ele>
        <time>2014-04-10T08:06:31Z</time>
      </trkpt>
      <trkpt lat="41.620747" lon="-0.809689">
        <ele>181.416</ele>
        <time>2014-04-10T08:06:35Z</time>
      </trkpt>
      <trkpt lat="41.620035" lon="-0.809078">
        <ele>181.829</ele>
        <time>2014-04-10T08:06:50Z</time>
      </trkpt>
      <trkpt lat="41.619936" lon="-0.808795">
        <ele>182.656</ele>
        <time>2014-04-10T08:06:54Z</time>
      </trkpt>
      <trkpt lat="41.620315" lon="-0.807403">
        <ele>182.672</ele>
        <time>2014-04-10T08:07:12Z</time>
      </trkpt>
      <trkpt lat="41.620442" lon="-0.806225">
        <ele>183.074</ele>
        <time>2014-04-10T08:07:27Z</time>
      </trkpt>
      <trkpt lat="41.620178" lon="-0.803550">
        <ele>181.681</ele>
        <time>2014-04-10T08:08:00Z</time>
      </trkpt>
      <trkpt lat="41.619853" lon="-0.802435">
        <ele>182.661</ele>
        <time>2014-04-10T08:08:15Z</time>
      </trkpt>
      <trkpt lat="41.619051" lon="-0.800815">
        <ele>183.017</ele>
        <time>2014-04-10T08:08:39Z</time>
      </trkpt>
      <trkpt lat="41.618189" lon="-0.799823">
        <ele>183.207</ele>
        <time>2014-04-10T08:08:58Z</time>
      </trkpt>
      <trkpt lat="41.617634" lon="-0.799672">
        <ele>183.084</ele>
        <time>2014-04-10T08:09:08Z</time>
      </trkpt>
      <trkpt lat="41.614919" lon="-0.799877">
        <ele>185.023</ele>
        <time>2014-04-10T08:09:58Z</time>
      </trkpt>
      <trkpt lat="41.613171" lon="-0.799745">
        <ele>185.211</ele>
        <time>2014-04-10T08:10:39Z</time>
      </trkpt>
      <trkpt lat="41.611619" lon="-0.800200">
        <ele>183.834</ele>
        <time>2014-04-10T08:11:05Z</time>
      </trkpt>
      <trkpt lat="41.610763" lon="-0.800701">
        <ele>183.491</ele>
        <time>2014-04-10T08:11:20Z</time>
      </trkpt>
      <trkpt lat="41.609766" lon="-0.801062">
        <ele>183.497</ele>
        <time>2014-04-10T08:11:38Z</time>
      </trkpt>
      <trkpt lat="41.609695" lon="-0.800946">
        <ele>184.239</ele>
        <time>2014-04-10T08:11:43Z</time>
      </trkpt>
      <trkpt lat="41.610308" lon="-0.799667">
        <ele>184.051</ele>
        <time>2014-04-10T08:12:04Z</time>
      </trkpt>
      <trkpt lat="41.612334" lon="-0.797448">
        <ele>183.601</ele>
        <time>2014-04-10T08:12:47Z</time>
      </trkpt>
      <trkpt lat="41.612623" lon="-0.796363">
        <ele>182.411</ele>
        <time>2014-04-10T08:13:01Z</time>
      </trkpt>
      <trkpt lat="41.613905" lon="-0.795682">
        <ele>182.407</ele>
        <time>2014-04-10T08:13:22Z</time>
      </trkpt>
      <trkpt lat="41.614642" lon="-0.794905">
        <ele>183.071</ele>
        <time>2014-04-10T08:13:36Z</time>
      </trkpt>
      <trkpt lat="41.615662" lon="-0.793204">
        <ele>183.050</ele>
        <time>2014-04-10T08:13:59Z</time>
      </trkpt>
      <trkpt lat="41.617836" lon="-0.788220">
        <ele>182.448</ele>
        <time>2014-04-10T08:15:06Z</time>
      </trkpt>
      <trkpt lat="41.617883" lon="-0.787928">
        <ele>182.831</ele>
        <time>2014-04-10T08:15:10Z</time>
      </trkpt>
      <trkpt lat="41.617518" lon="-0.787286">
        <ele>184.258</ele>
        <time>2014-04-10T08:15:21Z</time>
      </trkpt>
      <trkpt lat="41.617793" lon="-0.786544">
        <ele>183.654</ele>
        <time>2014-04-10T08:15:32Z</time>
      </trkpt>
      <trkpt lat="41.619372" lon="-0.784078">
        <ele>177.226</ele>
        <time>2014-04-10T08:16:15Z</time>
      </trkpt>
      <trkpt lat="41.620835" lon="-0.782759">
        <ele>180.028</ele>
        <time>2014-04-10T08:16:49Z</time>
      </trkpt>
      <trkpt lat="41.620241" lon="-0.783269">
        <ele>184.889</ele>
        <time>2014-04-10T08:17:04Z</time>
      </trkpt>
      <trkpt lat="41.619881" lon="-0.782736">
        <ele>187.617</ele>
        <time>2014-04-10T08:17:17Z</time>
      </trkpt>
      <trkpt lat="41.619977" lon="-0.782493">
        <ele>185.607</ele>
        <time>2014-04-10T08:17:23Z</time>
      </trkpt>
      <trkpt lat="41.622542" lon="-0.780258">
        <ele>180.878</ele>
        <time>2014-04-10T08:18:12Z</time>
      </trkpt>
      <trkpt lat="41.623775" lon="-0.776396">
        <ele>182.267</ele>
        <time>2014-04-10T08:19:02Z</time>
      </trkpt>
      <trkpt lat="41.625733" lon="-0.772679">
        <ele>183.645</ele>
        <time>2014-04-10T08:19:55Z</time>
      </trkpt>
      <trkpt lat="41.626736" lon="-0.768088">
        <ele>184.818</ele>
        <time>2014-04-10T08:20:52Z</time>
      </trkpt>
      <trkpt lat="41.627044" lon="-0.767735">
        <ele>185.475</ele>
        <time>2014-04-10T08:20:58Z</time>
      </trkpt>
      <trkpt lat="41.628236" lon="-0.767144">
        <ele>184.251</ele>
        <time>2014-04-10T08:21:17Z</time>
      </trkpt>
      <trkpt lat="41.629929" lon="-0.765673">
        <ele>184.263</ele>
        <time>2014-04-10T08:21:48Z</time>
      </trkpt>
      <trkpt lat="41.630084" lon="-0.765403">
        <ele>184.269</ele>
        <time>2014-04-10T08:21:52Z</time>
      </trkpt>
      <trkpt lat="41.629856" lon="-0.764051">
        <ele>185.204</ele>
        <time>2014-04-10T08:22:08Z</time>
      </trkpt>
      <trkpt lat="41.631197" lon="-0.761948">
        <ele>189.424</ele>
        <time>2014-04-10T08:22:40Z</time>
      </trkpt>
      <trkpt lat="41.631930" lon="-0.759621">
        <ele>190.207</ele>
        <time>2014-04-10T08:23:13Z</time>
      </trkpt>
      <trkpt lat="41.631775" lon="-0.758821">
        <ele>189.462</ele>
        <time>2014-04-10T08:23:24Z</time>
      </trkpt>
      <trkpt lat="41.632430" lon="-0.756916">
        <ele>191.871</ele>
        <time>2014-04-10T08:23:58Z</time>
      </trkpt>
      <trkpt lat="41.632271" lon="-0.756461">
        <ele>191.839</ele>
        <time>2014-04-10T08:24:07Z</time>
      </trkpt>
      <trkpt lat="41.632425" lon="-0.756239">
        <ele>192.062</ele>
        <time>2014-04-10T08:24:14Z</time>
      </trkpt>
      <trkpt lat="41.632410" lon="-0.755213">
        <ele>193.239</ele>
        <time>2014-04-10T08:24:31Z</time>
      </trkpt>
      <trkpt lat="41.633068" lon="-0.754825">
        <ele>195.665</ele>
        <time>2014-04-10T08:25:30Z</time>
      </trkpt>
      <trkpt lat="41.633500" lon="-0.755388">
        <ele>193.287</ele>
        <time>2014-04-10T08:25:44Z</time>
      </trkpt>
      <trkpt lat="41.634016" lon="-0.756556">
        <ele>193.262</ele>
        <time>2014-04-10T08:26:02Z</time>
      </trkpt>
      <trkpt lat="41.634210" lon="-0.756418">
        <ele>192.283</ele>
        <time>2014-04-10T08:26:10Z</time>
      </trkpt>
      <trkpt lat="41.633356" lon="-0.753531">
        <ele>196.411</ele>
        <time>2014-04-10T08:26:55Z</time>
      </trkpt>
      <trkpt lat="41.633412" lon="-0.753364">
        <ele>196.607</ele>
        <time>2014-04-10T08:26:59Z</time>
      </trkpt>
      <trkpt lat="41.634027" lon="-0.753447">
        <ele>199.262</ele>
        <time>2014-04-10T08:27:15Z</time>
      </trkpt>
      <trkpt lat="41.635301" lon="-0.753244">
        <ele>210.651</ele>
        <time>2014-04-10T08:27:47Z</time>
      </trkpt>
      <trkpt lat="41.635505" lon="-0.752741">
        <ele>211.259</ele>
        <time>2014-04-10T08:27:58Z</time>
      </trkpt>
      <trkpt lat="41.637314" lon="-0.750783">
        <ele>207.832</ele>
        <time>2014-04-10T08:28:50Z</time>
      </trkpt>
      <trkpt lat="41.638123" lon="-0.751498">
        <ele>215.249</ele>
        <time>2014-04-10T08:29:13Z</time>
      </trkpt>
      <trkpt lat="41.640089" lon="-0.749822">
        <ele>208.655</ele>
        <time>2014-04-10T08:29:56Z</time>
      </trkpt>
      <trkpt lat="41.640846" lon="-0.751745">
        <ele>207.887</ele>
        <time>2014-04-10T08:30:32Z</time>
      </trkpt>
      <trkpt lat="41.640285" lon="-0.750604">
        <ele>209.679</ele>
        <time>2014-04-10T08:30:52Z</time>
      </trkpt>
      <trkpt lat="41.640232" lon="-0.750217">
        <ele>210.405</ele>
        <time>2014-04-10T08:31:02Z</time>
      </trkpt>
      <trkpt lat="41.640666" lon="-0.751020">
        <ele>208.625</ele>
        <time>2014-04-10T08:31:16Z</time>
      </trkpt>
      <trkpt lat="41.640876" lon="-0.751169">
        <ele>207.807</ele>
        <time>2014-04-10T08:31:20Z</time>
      </trkpt>
      <trkpt lat="41.642565" lon="-0.751532">
        <ele>206.293</ele>
        <time>2014-04-10T08:31:47Z</time>
      </trkpt>
      <trkpt lat="41.643976" lon="-0.752637">
        <ele>207.042</ele>
        <time>2014-04-10T08:32:12Z</time>
      </trkpt>
      <trkpt lat="41.644471" lon="-0.752744">
        <ele>207.620</ele>
        <time>2014-04-10T08:32:20Z</time>
      </trkpt>
      <trkpt lat="41.645095" lon="-0.752094">
        <ele>207.483</ele>
        <time>2014-04-10T08:32:34Z</time>
      </trkpt>
      <trkpt lat="41.645279" lon="-0.752107">
        <ele>207.280</ele>
        <time>2014-04-10T08:32:37Z</time>
      </trkpt>
      <trkpt lat="41.645858" lon="-0.752627">
        <ele>207.686</ele>
        <time>2014-04-10T08:32:48Z</time>
      </trkpt>
      <trkpt lat="41.646573" lon="-0.753817">
        <ele>208.688</ele>
        <time>2014-04-10T08:33:06Z</time>
      </trkpt>
      <trkpt lat="41.646660" lon="-0.754547">
        <ele>208.635</ele>
        <time>2014-04-10T08:33:15Z</time>
      </trkpt>
      <trkpt lat="41.646353" lon="-0.755841">
        <ele>206.486</ele>
        <time>2014-04-10T08:33:31Z</time>
      </trkpt>
      <trkpt lat="41.646602" lon="-0.756814">
        <ele>207.214</ele>
        <time>2014-04-10T08:33:44Z</time>
      </trkpt>
      <trkpt lat="41.647930" lon="-0.758088">
        <ele>208.007</ele>
        <time>2014-04-10T08:34:11Z</time>
      </trkpt>
      <trkpt lat="41.649736" lon="-0.760362">
        <ele>210.259</ele>
        <time>2014-04-10T08:34:51Z</time>
      </trkpt>
      <trkpt lat="41.652636" lon="-0.762786">
        <ele>213.478</ele>
        <time>2014-04-10T08:35:48Z</time>
      </trkpt>
      <trkpt lat="41.655756" lon="-0.763797">
        <ele>219.046</ele>
        <time>2014-04-10T08:36:42Z</time>
      </trkpt>
      <trkpt lat="41.656435" lon="-0.764234">
        <ele>220.439</ele>
        <time>2014-04-10T08:36:55Z</time>
      </trkpt>
      <trkpt lat="41.657487" lon="-0.764515">
        <ele>221.056</ele>
        <time>2014-04-10T08:37:13Z</time>
      </trkpt>
      <trkpt lat="41.657706" lon="-0.764450">
        <ele>221.022</ele>
        <time>2014-04-10T08:37:17Z</time>
      </trkpt>
      <trkpt lat="41.658528" lon="-0.761725">
        <ele>223.444</ele>
        <time>2014-04-10T08:37:56Z</time>
      </trkpt>
      <trkpt lat="41.659144" lon="-0.756634">
        <ele>230.084</ele>
        <time>2014-04-10T08:39:03Z</time>
      </trkpt>
      <trkpt lat="41.660336" lon="-0.753265">
        <ele>237.207</ele>
        <time>2014-04-10T08:40:01Z</time>
      </trkpt>
      <trkpt lat="41.660467" lon="-0.751574">
        <ele>237.817</ele>
        <time>2014-04-10T08:40:28Z</time>
      </trkpt>
      <trkpt lat="41.661001" lon="-0.750688">
        <ele>239.207</ele>
        <time>2014-04-10T08:40:45Z</time>
      </trkpt>
      <trkpt lat="41.661190" lon="-0.749916">
        <ele>241.444</ele>
        <time>2014-04-10T08:40:58Z</time>
      </trkpt>
      <trkpt lat="41.660199" lon="-0.749489">
        <ele>242.043</ele>
        <time>2014-04-10T08:41:20Z</time>
      </trkpt>
      <trkpt lat="41.659959" lon="-0.748896">
        <ele>242.261</ele>
        <time>2014-04-10T08:41:30Z</time>
      </trkpt>
      <trkpt lat="41.659025" lon="-0.747629">
        <ele>247.654</ele>
        <time>2014-04-10T08:42:00Z</time>
      </trkpt>
      <trkpt lat="41.658598" lon="-0.746825">
        <ele>254.441</ele>
        <time>2014-04-10T08:42:24Z</time>
      </trkpt>
      <trkpt lat="41.658083" lon="-0.744826">
        <ele>262.687</ele>
        <time>2014-04-10T08:43:16Z</time>
      </trkpt>
      <trkpt lat="41.657507" lon="-0.744757">
        <ele>262.279</ele>
        <time>2014-04-10T08:43:32Z</time>
      </trkpt>
      <trkpt lat="41.656786" lon="-0.744093">
        <ele>267.645</ele>
        <time>2014-04-10T08:43:56Z</time>
      </trkpt>
      <trkpt lat="41.655758" lon="-0.743493">
        <ele>265.847</ele>
        <time>2014-04-10T08:44:23Z</time>
      </trkpt>
      <trkpt lat="41.654779" lon="-0.742194">
        <ele>277.011</ele>
        <time>2014-04-10T08:45:21Z</time>
      </trkpt>
      <trkpt lat="41.654667" lon="-0.742675">
        <ele>282.807</ele>
        <time>2014-04-10T08:45:46Z</time>
      </trkpt>
      <trkpt lat="41.654274" lon="-0.742506">
        <ele>290.480</ele>
        <time>2014-04-10T08:46:15Z</time>
      </trkpt>
      <trkpt lat="41.653853" lon="-0.742895">
        <ele>301.059</ele>
        <time>2014-04-10T08:46:55Z</time>
      </trkpt>
      <trkpt lat="41.653863" lon="-0.742743">
        <ele>303.257</ele>
        <time>2014-04-10T08:47:08Z</time>
      </trkpt>
      <trkpt lat="41.653856" lon="-0.742876">
        <ele>300.810</ele>
        <time>2014-04-10T08:54:45Z</time>
      </trkpt>
      <trkpt lat="41.653981" lon="-0.742871">
        <ele>298.077</ele>
        <time>2014-04-10T08:54:51Z</time>
      </trkpt>
      <trkpt lat="41.654327" lon="-0.742510">
        <ele>289.873</ele>
        <time>2014-04-10T08:55:06Z</time>
      </trkpt>
      <trkpt lat="41.654712" lon="-0.742610">
        <ele>281.045</ele>
        <time>2014-04-10T08:55:20Z</time>
      </trkpt>
      <trkpt lat="41.654737" lon="-0.742227">
        <ele>276.096</ele>
        <time>2014-04-10T08:55:28Z</time>
      </trkpt>
      <trkpt lat="41.654086" lon="-0.741524">
        <ele>268.431</ele>
        <time>2014-04-10T08:55:48Z</time>
      </trkpt>
      <trkpt lat="41.653146" lon="-0.741275">
        <ele>268.024</ele>
        <time>2014-04-10T08:56:08Z</time>
      </trkpt>
      <trkpt lat="41.652150" lon="-0.741748">
        <ele>257.007</ele>
        <time>2014-04-10T08:56:24Z</time>
      </trkpt>
      <trkpt lat="41.651573" lon="-0.741634">
        <ele>251.485</ele>
        <time>2014-04-10T08:56:32Z</time>
      </trkpt>
      <trkpt lat="41.649284" lon="-0.738662">
        <ele>240.854</ele>
        <time>2014-04-10T08:57:17Z</time>
      </trkpt>
      <trkpt lat="41.648635" lon="-0.737352">
        <ele>236.682</ele>
        <time>2014-04-10T08:57:37Z</time>
      </trkpt>
      <trkpt lat="41.649965" lon="-0.736803">
        <ele>238.445</ele>
        <time>2014-04-10T08:58:07Z</time>
      </trkpt>
      <trkpt lat="41.651538" lon="-0.735581">
        <ele>241.282</ele>
        <time>2014-04-10T08:58:45Z</time>
      </trkpt>
      <trkpt lat="41.651966" lon="-0.735402">
        <ele>241.898</ele>
        <time>2014-04-10T08:58:54Z</time>
      </trkpt>
      <trkpt lat="41.652759" lon="-0.735544">
        <ele>244.490</ele>
        <time>2014-04-10T08:59:11Z</time>
      </trkpt>
      <trkpt lat="41.653101" lon="-0.735373">
        <ele>245.676</ele>
        <time>2014-04-10T08:59:19Z</time>
      </trkpt>
      <trkpt lat="41.654314" lon="-0.732456">
        <ele>247.890</ele>
        <time>2014-04-10T09:00:11Z</time>
      </trkpt>
      <trkpt lat="41.654851" lon="-0.731814">
        <ele>249.419</ele>
        <time>2014-04-10T09:00:25Z</time>
      </trkpt>
      <trkpt lat="41.655621" lon="-0.731312">
        <ele>255.007</ele>
        <time>2014-04-10T09:00:44Z</time>
      </trkpt>
      <trkpt lat="41.655997" lon="-0.730772">
        <ele>256.053</ele>
        <time>2014-04-10T09:00:57Z</time>
      </trkpt>
      <trkpt lat="41.656517" lon="-0.729216">
        <ele>257.422</ele>
        <time>2014-04-10T09:01:25Z</time>
      </trkpt>
      <trkpt lat="41.657349" lon="-0.727600">
        <ele>258.630</ele>
        <time>2014-04-10T09:01:57Z</time>
      </trkpt>
      <trkpt lat="41.658768" lon="-0.726037">
        <ele>263.883</ele>
        <time>2014-04-10T09:02:38Z</time>
      </trkpt>
      <trkpt lat="41.659052" lon="-0.725336">
        <ele>265.070</ele>
        <time>2014-04-10T09:02:51Z</time>
      </trkpt>
      <trkpt lat="41.659347" lon="-0.724047">
        <ele>266.436</ele>
        <time>2014-04-10T09:03:12Z</time>
      </trkpt>
      <trkpt lat="41.659325" lon="-0.720939">
        <ele>268.458</ele>
        <time>2014-04-10T09:04:04Z</time>
      </trkpt>
      <trkpt lat="41.659893" lon="-0.720061">
        <ele>271.647</ele>
        <time>2014-04-10T09:04:24Z</time>
      </trkpt>
      <trkpt lat="41.660793" lon="-0.719559">
        <ele>275.029</ele>
        <time>2014-04-10T09:04:47Z</time>
      </trkpt>
      <trkpt lat="41.661401" lon="-0.718688">
        <ele>277.221</ele>
        <time>2014-04-10T09:05:07Z</time>
      </trkpt>
      <trkpt lat="41.661670" lon="-0.716244">
        <ele>279.807</ele>
        <time>2014-04-10T09:05:49Z</time>
      </trkpt>
      <trkpt lat="41.663319" lon="-0.714717">
        <ele>287.240</ele>
        <time>2014-04-10T09:06:34Z</time>
      </trkpt>
      <trkpt lat="41.663863" lon="-0.713202">
        <ele>289.669</ele>
        <time>2014-04-10T09:07:03Z</time>
      </trkpt>
      <trkpt lat="41.664038" lon="-0.713035">
        <ele>290.027</ele>
        <time>2014-04-10T09:07:08Z</time>
      </trkpt>
      <trkpt lat="41.664898" lon="-0.713001">
        <ele>293.630</ele>
        <time>2014-04-10T09:07:28Z</time>
      </trkpt>
      <trkpt lat="41.665481" lon="-0.712112">
        <ele>294.657</ele>
        <time>2014-04-10T09:07:47Z</time>
      </trkpt>
      <trkpt lat="41.665807" lon="-0.710987">
        <ele>295.263</ele>
        <time>2014-04-10T09:08:06Z</time>
      </trkpt>
      <trkpt lat="41.665907" lon="-0.708220">
        <ele>296.045</ele>
        <time>2014-04-10T09:08:49Z</time>
      </trkpt>
      <trkpt lat="41.666212" lon="-0.707205">
        <ele>298.475</ele>
        <time>2014-04-10T09:09:08Z</time>
      </trkpt>
      <trkpt lat="41.666465" lon="-0.705088">
        <ele>303.228</ele>
        <time>2014-04-10T09:09:47Z</time>
      </trkpt>
      <trkpt lat="41.666619" lon="-0.704854">
        <ele>306.220</ele>
        <time>2014-04-10T09:09:55Z</time>
      </trkpt>
      <trkpt lat="41.667545" lon="-0.704725">
        <ele>317.007</ele>
        <time>2014-04-10T09:10:29Z</time>
      </trkpt>
      <trkpt lat="41.669275" lon="-0.703889">
        <ele>325.283</ele>
        <time>2014-04-10T09:11:22Z</time>
      </trkpt>
      <trkpt lat="41.669871" lon="-0.703082">
        <ele>327.832</ele>
        <time>2014-04-10T09:11:41Z</time>
      </trkpt>
      <trkpt lat="41.670831" lon="-0.702331">
        <ele>329.840</ele>
        <time>2014-04-10T09:12:05Z</time>
      </trkpt>
      <trkpt lat="41.671153" lon="-0.701267">
        <ele>330.243</ele>
        <time>2014-04-10T09:12:24Z</time>
      </trkpt>
      <trkpt lat="41.673205" lon="-0.700035">
        <ele>337.670</ele>
        <time>2014-04-10T09:13:13Z</time>
      </trkpt>
      <trkpt lat="41.673680" lon="-0.699907">
        <ele>339.426</ele>
        <time>2014-04-10T09:13:25Z</time>
      </trkpt>
      <trkpt lat="41.673417" lon="-0.698367">
        <ele>342.078</ele>
        <time>2014-04-10T09:13:53Z</time>
      </trkpt>
      <trkpt lat="41.673006" lon="-0.697237">
        <ele>339.282</ele>
        <time>2014-04-10T09:14:15Z</time>
      </trkpt>
      <trkpt lat="41.673028" lon="-0.696881">
        <ele>338.843</ele>
        <time>2014-04-10T09:14:20Z</time>
      </trkpt>
      <trkpt lat="41.673852" lon="-0.694839">
        <ele>338.417</ele>
        <time>2014-04-10T09:14:52Z</time>
      </trkpt>
      <trkpt lat="41.675872" lon="-0.692953">
        <ele>346.007</ele>
        <time>2014-04-10T09:15:40Z</time>
      </trkpt>
      <trkpt lat="41.676862" lon="-0.692774">
        <ele>352.454</ele>
        <time>2014-04-10T09:16:03Z</time>
      </trkpt>
      <trkpt lat="41.678073" lon="-0.692184">
        <ele>356.013</ele>
        <time>2014-04-10T09:16:31Z</time>
      </trkpt>
      <trkpt lat="41.679232" lon="-0.692221">
        <ele>361.281</ele>
        <time>2014-04-10T09:16:56Z</time>
      </trkpt>
      <trkpt lat="41.680444" lon="-0.692542">
        <ele>363.484</ele>
        <time>2014-04-10T09:17:23Z</time>
      </trkpt>
      <trkpt lat="41.681074" lon="-0.692099">
        <ele>364.021</ele>
        <time>2014-04-10T09:17:37Z</time>
      </trkpt>
      <trkpt lat="41.681731" lon="-0.691232">
        <ele>365.027</ele>
        <time>2014-04-10T09:17:56Z</time>
      </trkpt>
      <trkpt lat="41.682140" lon="-0.690960">
        <ele>365.239</ele>
        <time>2014-04-10T09:18:05Z</time>
      </trkpt>
      <trkpt lat="41.683433" lon="-0.690747">
        <ele>368.231</ele>
        <time>2014-04-10T09:18:33Z</time>
      </trkpt>
      <trkpt lat="41.683623" lon="-0.690801">
        <ele>369.261</ele>
        <time>2014-04-10T09:18:38Z</time>
      </trkpt>
      <trkpt lat="41.684130" lon="-0.691634">
        <ele>374.407</ele>
        <time>2014-04-10T09:19:04Z</time>
      </trkpt>
      <trkpt lat="41.685117" lon="-0.692433">
        <ele>381.207</ele>
        <time>2014-04-10T09:19:47Z</time>
      </trkpt>
      <trkpt lat="41.687007" lon="-0.694400">
        <ele>395.449</ele>
        <time>2014-04-10T09:21:11Z</time>
      </trkpt>
      <trkpt lat="41.687766" lon="-0.694822">
        <ele>398.058</ele>
        <time>2014-04-10T09:21:36Z</time>
      </trkpt>
      <trkpt lat="41.688895" lon="-0.695775">
        <ele>396.826</ele>
        <time>2014-04-10T09:22:02Z</time>
      </trkpt>
      <trkpt lat="41.690407" lon="-0.696261">
        <ele>398.629</ele>
        <time>2014-04-10T09:22:35Z</time>
      </trkpt>
      <trkpt lat="41.690407" lon="-0.697224">
        <ele>399.826</ele>
        <time>2014-04-10T09:22:51Z</time>
      </trkpt>
      <trkpt lat="41.690241" lon="-0.697739">
        <ele>400.852</ele>
        <time>2014-04-10T09:23:01Z</time>
      </trkpt>
      <trkpt lat="41.688864" lon="-0.700405">
        <ele>406.014</ele>
        <time>2014-04-10T09:24:05Z</time>
      </trkpt>
      <trkpt lat="41.688657" lon="-0.700694">
        <ele>407.625</ele>
        <time>2014-04-10T09:24:13Z</time>
      </trkpt>
      <trkpt lat="41.688174" lon="-0.700970">
        <ele>411.226</ele>
        <time>2014-04-10T09:24:28Z</time>
      </trkpt>
      <trkpt lat="41.687932" lon="-0.701404">
        <ele>413.208</ele>
        <time>2014-04-10T09:24:42Z</time>
      </trkpt>
      <trkpt lat="41.686720" lon="-0.700380">
        <ele>414.807</ele>
        <time>2014-04-10T09:25:27Z</time>
      </trkpt>
      <trkpt lat="41.685920" lon="-0.699893">
        <ele>418.848</ele>
        <time>2014-04-10T09:31:22Z</time>
      </trkpt>
      <trkpt lat="41.686702" lon="-0.700342">
        <ele>415.617</ele>
        <time>2014-04-10T09:32:00Z</time>
      </trkpt>
      <trkpt lat="41.687914" lon="-0.701411">
        <ele>413.275</ele>
        <time>2014-04-10T09:32:40Z</time>
      </trkpt>
      <trkpt lat="41.687838" lon="-0.702614">
        <ele>413.028</ele>
        <time>2014-04-10T09:33:03Z</time>
      </trkpt>
      <trkpt lat="41.689046" lon="-0.705209">
        <ele>413.685</ele>
        <time>2014-04-10T09:33:56Z</time>
      </trkpt>
      <trkpt lat="41.688993" lon="-0.705727">
        <ele>411.011</ele>
        <time>2014-04-10T09:34:03Z</time>
      </trkpt>
      <trkpt lat="41.688367" lon="-0.707144">
        <ele>408.623</ele>
        <time>2014-04-10T09:34:24Z</time>
      </trkpt>
      <trkpt lat="41.687879" lon="-0.709190">
        <ele>394.868</ele>
        <time>2014-04-10T09:34:43Z</time>
      </trkpt>
      <trkpt lat="41.687550" lon="-0.709763">
        <ele>392.842</ele>
        <time>2014-04-10T09:34:50Z</time>
      </trkpt>
      <trkpt lat="41.687192" lon="-0.711401">
        <ele>389.226</ele>
        <time>2014-04-10T09:35:13Z</time>
      </trkpt>
      <trkpt lat="41.686987" lon="-0.713470">
        <ele>385.407</ele>
        <time>2014-04-10T09:35:37Z</time>
      </trkpt>
      <trkpt lat="41.686252" lon="-0.715035">
        <ele>385.482</ele>
        <time>2014-04-10T09:36:03Z</time>
      </trkpt>
      <trkpt lat="41.686133" lon="-0.715858">
        <ele>381.291</ele>
        <time>2014-04-10T09:36:12Z</time>
      </trkpt>
      <trkpt lat="41.686317" lon="-0.718223">
        <ele>371.239</ele>
        <time>2014-04-10T09:36:33Z</time>
      </trkpt>
      <trkpt lat="41.686426" lon="-0.718615">
        <ele>369.282</ele>
        <time>2014-04-10T09:36:37Z</time>
      </trkpt>
      <trkpt lat="41.686837" lon="-0.719176">
        <ele>369.499</ele>
        <time>2014-04-10T09:36:45Z</time>
      </trkpt>
      <trkpt lat="41.687210" lon="-0.720473">
        <ele>368.855</ele>
        <time>2014-04-10T09:37:04Z</time>
      </trkpt>
      <trkpt lat="41.687203" lon="-0.721685">
        <ele>372.417</ele>
        <time>2014-04-10T09:37:40Z</time>
      </trkpt>
      <trkpt lat="41.687741" lon="-0.722932">
        <ele>372.689</ele>
        <time>2014-04-10T09:38:01Z</time>
      </trkpt>
      <trkpt lat="41.688213" lon="-0.723620">
        <ele>369.606</ele>
        <time>2014-04-10T09:38:13Z</time>
      </trkpt>
      <trkpt lat="41.688448" lon="-0.727152">
        <ele>348.826</ele>
        <time>2014-04-10T09:38:44Z</time>
      </trkpt>
      <trkpt lat="41.688218" lon="-0.727676">
        <ele>349.607</ele>
        <time>2014-04-10T09:38:51Z</time>
      </trkpt>
      <trkpt lat="41.687866" lon="-0.729486">
        <ele>364.644</ele>
        <time>2014-04-10T09:39:45Z</time>
      </trkpt>
      <trkpt lat="41.688104" lon="-0.731157">
        <ele>368.453</ele>
        <time>2014-04-10T09:40:28Z</time>
      </trkpt>
      <trkpt lat="41.689685" lon="-0.734650">
        <ele>366.061</ele>
        <time>2014-04-10T09:41:35Z</time>
      </trkpt>
      <trkpt lat="41.689773" lon="-0.735625">
        <ele>365.634</ele>
        <time>2014-04-10T09:41:50Z</time>
      </trkpt>
      <trkpt lat="41.690042" lon="-0.735604">
        <ele>365.491</ele>
        <time>2014-04-10T09:42:00Z</time>
      </trkpt>
      <trkpt lat="41.690315" lon="-0.735775">
        <ele>366.077</ele>
        <time>2014-04-10T09:42:07Z</time>
      </trkpt>
      <trkpt lat="41.690962" lon="-0.736737">
        <ele>365.049</ele>
        <time>2014-04-10T09:42:34Z</time>
      </trkpt>
      <trkpt lat="41.690679" lon="-0.736548">
        <ele>365.047</ele>
        <time>2014-04-10T09:43:08Z</time>
      </trkpt>
      <trkpt lat="41.690654" lon="-0.737057">
        <ele>368.429</ele>
        <time>2014-04-10T09:43:53Z</time>
      </trkpt>
      <trkpt lat="41.690963" lon="-0.736744">
        <ele>365.221</ele>
        <time>2014-04-10T09:48:16Z</time>
      </trkpt>
      <trkpt lat="41.691950" lon="-0.737673">
        <ele>365.007</ele>
        <time>2014-04-10T09:48:57Z</time>
      </trkpt>
      <trkpt lat="41.692369" lon="-0.737796">
        <ele>362.640</ele>
        <time>2014-04-10T09:49:05Z</time>
      </trkpt>
      <trkpt lat="41.693313" lon="-0.738449">
        <ele>354.099</ele>
        <time>2014-04-10T09:49:20Z</time>
      </trkpt>
      <trkpt lat="41.693951" lon="-0.739383">
        <ele>345.827</ele>
        <time>2014-04-10T09:49:32Z</time>
      </trkpt>
      <trkpt lat="41.694694" lon="-0.742549">
        <ele>323.450</ele>
        <time>2014-04-10T09:50:04Z</time>
      </trkpt>
      <trkpt lat="41.694821" lon="-0.744618">
        <ele>317.657</ele>
        <time>2014-04-10T09:50:22Z</time>
      </trkpt>
      <trkpt lat="41.694298" lon="-0.746142">
        <ele>314.463</ele>
        <time>2014-04-10T09:50:39Z</time>
      </trkpt>
      <trkpt lat="41.693108" lon="-0.746083">
        <ele>310.255</ele>
        <time>2014-04-10T09:50:59Z</time>
      </trkpt>
      <trkpt lat="41.692754" lon="-0.747284">
        <ele>305.244</ele>
        <time>2014-04-10T09:51:12Z</time>
      </trkpt>
      <trkpt lat="41.692916" lon="-0.748742">
        <ele>303.205</ele>
        <time>2014-04-10T09:51:31Z</time>
      </trkpt>
      <trkpt lat="41.692831" lon="-0.750432">
        <ele>302.615</ele>
        <time>2014-04-10T09:51:51Z</time>
      </trkpt>
      <trkpt lat="41.693430" lon="-0.752103">
        <ele>295.607</ele>
        <time>2014-04-10T09:52:10Z</time>
      </trkpt>
      <trkpt lat="41.693465" lon="-0.753186">
        <ele>290.610</ele>
        <time>2014-04-10T09:52:19Z</time>
      </trkpt>
      <trkpt lat="41.692931" lon="-0.754630">
        <ele>285.489</ele>
        <time>2014-04-10T09:52:40Z</time>
      </trkpt>
      <trkpt lat="41.692454" lon="-0.758660">
        <ele>269.477</ele>
        <time>2014-04-10T09:53:18Z</time>
      </trkpt>
      <trkpt lat="41.691399" lon="-0.762477">
        <ele>256.010</ele>
        <time>2014-04-10T09:53:54Z</time>
      </trkpt>
      <trkpt lat="41.691540" lon="-0.762871">
        <ele>254.837</ele>
        <time>2014-04-10T09:54:09Z</time>
      </trkpt>
      <trkpt lat="41.692202" lon="-0.761746">
        <ele>261.643</ele>
        <time>2014-04-10T09:54:42Z</time>
      </trkpt>
      <trkpt lat="41.692538" lon="-0.761439">
        <ele>264.065</ele>
        <time>2014-04-10T09:54:55Z</time>
      </trkpt>
      <trkpt lat="41.692765" lon="-0.765413">
        <ele>253.868</ele>
        <time>2014-04-10T09:55:47Z</time>
      </trkpt>
      <trkpt lat="41.692790" lon="-0.769196">
        <ele>241.842</ele>
        <time>2014-04-10T09:56:25Z</time>
      </trkpt>
      <trkpt lat="41.692968" lon="-0.770421">
        <ele>237.626</ele>
        <time>2014-04-10T09:56:37Z</time>
      </trkpt>
      <trkpt lat="41.693339" lon="-0.771108">
        <ele>236.207</ele>
        <time>2014-04-10T09:56:46Z</time>
      </trkpt>
      <trkpt lat="41.693095" lon="-0.772360">
        <ele>234.452</ele>
        <time>2014-04-10T09:57:03Z</time>
      </trkpt>
      <trkpt lat="41.693161" lon="-0.773382">
        <ele>230.441</ele>
        <time>2014-04-10T09:57:15Z</time>
      </trkpt>
      <trkpt lat="41.692452" lon="-0.775181">
        <ele>226.219</ele>
        <time>2014-04-10T09:57:40Z</time>
      </trkpt>
      <trkpt lat="41.692756" lon="-0.775444">
        <ele>225.862</ele>
        <time>2014-04-10T09:57:50Z</time>
      </trkpt>
      <trkpt lat="41.692895" lon="-0.777258">
        <ele>226.059</ele>
        <time>2014-04-10T09:58:20Z</time>
      </trkpt>
      <trkpt lat="41.692660" lon="-0.777835">
        <ele>223.645</ele>
        <time>2014-04-10T09:58:28Z</time>
      </trkpt>
      <trkpt lat="41.692443" lon="-0.777997">
        <ele>222.817</ele>
        <time>2014-04-10T09:58:32Z</time>
      </trkpt>
      <trkpt lat="41.692038" lon="-0.777897">
        <ele>220.237</ele>
        <time>2014-04-10T09:58:40Z</time>
      </trkpt>
      <trkpt lat="41.690795" lon="-0.779268">
        <ele>218.249</ele>
        <time>2014-04-10T09:59:23Z</time>
      </trkpt>
      <trkpt lat="41.689367" lon="-0.779860">
        <ele>216.013</ele>
        <time>2014-04-10T09:59:49Z</time>
      </trkpt>
      <trkpt lat="41.688985" lon="-0.780237">
        <ele>214.607</ele>
        <time>2014-04-10T09:59:59Z</time>
      </trkpt>
      <trkpt lat="41.689712" lon="-0.780897">
        <ele>214.669</ele>
        <time>2014-04-10T10:00:15Z</time>
      </trkpt>
      <trkpt lat="41.690725" lon="-0.782226">
        <ele>214.668</ele>
        <time>2014-04-10T10:00:40Z</time>
      </trkpt>
      <trkpt lat="41.691828" lon="-0.783134">
        <ele>213.646</ele>
        <time>2014-04-10T10:01:04Z</time>
      </trkpt>
      <trkpt lat="41.692600" lon="-0.784677">
        <ele>214.899</ele>
        <time>2014-04-10T10:01:29Z</time>
      </trkpt>
      <trkpt lat="41.692618" lon="-0.785130">
        <ele>215.656</ele>
        <time>2014-04-10T10:01:35Z</time>
      </trkpt>
      <trkpt lat="41.692129" lon="-0.787091">
        <ele>218.062</ele>
        <time>2014-04-10T10:02:03Z</time>
      </trkpt>
      <trkpt lat="41.692147" lon="-0.788030">
        <ele>218.854</ele>
        <time>2014-04-10T10:02:16Z</time>
      </trkpt>
      <trkpt lat="41.692465" lon="-0.789603">
        <ele>219.445</ele>
        <time>2014-04-10T10:02:38Z</time>
      </trkpt>
      <trkpt lat="41.692182" lon="-0.790588">
        <ele>220.847</ele>
        <time>2014-04-10T10:02:53Z</time>
      </trkpt>
      <trkpt lat="41.692428" lon="-0.792275">
        <ele>222.611</ele>
        <time>2014-04-10T10:03:16Z</time>
      </trkpt>
      <trkpt lat="41.692488" lon="-0.796344">
        <ele>221.207</ele>
        <time>2014-04-10T10:04:08Z</time>
      </trkpt>
      <trkpt lat="41.693170" lon="-0.799745">
        <ele>221.810</ele>
        <time>2014-04-10T10:04:48Z</time>
      </trkpt>
      <trkpt lat="41.693984" lon="-0.800655">
        <ele>221.019</ele>
        <time>2014-04-10T10:05:05Z</time>
      </trkpt>
      <trkpt lat="41.694394" lon="-0.801403">
        <ele>221.437</ele>
        <time>2014-04-10T10:05:16Z</time>
      </trkpt>
      <trkpt lat="41.694829" lon="-0.801532">
        <ele>220.610</ele>
        <time>2014-04-10T10:05:23Z</time>
      </trkpt>
      <trkpt lat="41.695266" lon="-0.802797">
        <ele>221.867</ele>
        <time>2014-04-10T10:05:41Z</time>
      </trkpt>
      <trkpt lat="41.695278" lon="-0.803997">
        <ele>221.283</ele>
        <time>2014-04-10T10:05:56Z</time>
      </trkpt>
      <trkpt lat="41.694915" lon="-0.806635">
        <ele>220.075</ele>
        <time>2014-04-10T10:06:27Z</time>
      </trkpt>
      <trkpt lat="41.695745" lon="-0.809153">
        <ele>219.062</ele>
        <time>2014-04-10T10:07:02Z</time>
      </trkpt>
      <trkpt lat="41.695531" lon="-0.811374">
        <ele>219.083</ele>
        <time>2014-04-10T10:07:30Z</time>
      </trkpt>
      <trkpt lat="41.695633" lon="-0.811504">
        <ele>219.211</ele>
        <time>2014-04-10T10:07:34Z</time>
      </trkpt>
      <trkpt lat="41.696067" lon="-0.811386">
        <ele>219.007</ele>
        <time>2014-04-10T10:07:43Z</time>
      </trkpt>
      <trkpt lat="41.696250" lon="-0.811466">
        <ele>219.022</ele>
        <time>2014-04-10T10:07:47Z</time>
      </trkpt>
      <trkpt lat="41.696404" lon="-0.812043">
        <ele>219.471</ele>
        <time>2014-04-10T10:07:56Z</time>
      </trkpt>
      <trkpt lat="41.697051" lon="-0.812547">
        <ele>218.229</ele>
        <time>2014-04-10T10:08:10Z</time>
      </trkpt>
      <trkpt lat="41.697068" lon="-0.812692">
        <ele>218.242</ele>
        <time>2014-04-10T10:08:12Z</time>
      </trkpt>
      <trkpt lat="41.697006" lon="-0.813352">
        <ele>218.429</ele>
        <time>2014-04-10T10:08:21Z</time>
      </trkpt>
      <trkpt lat="41.696552" lon="-0.813987">
        <ele>218.265</ele>
        <time>2014-04-10T10:08:34Z</time>
      </trkpt>
      <trkpt lat="41.696205" lon="-0.816505">
        <ele>217.877</ele>
        <time>2014-04-10T10:09:11Z</time>
      </trkpt>
      <trkpt lat="41.694665" lon="-0.819613">
        <ele>216.423</ele>
        <time>2014-04-10T10:09:54Z</time>
      </trkpt>
      <trkpt lat="41.693634" lon="-0.821173">
        <ele>211.683</ele>
        <time>2014-04-10T10:10:14Z</time>
      </trkpt>
      <trkpt lat="41.693935" lon="-0.823649">
        <ele>210.211</ele>
        <time>2014-04-10T10:10:47Z</time>
      </trkpt>
      <trkpt lat="41.695145" lon="-0.824510">
        <ele>208.607</ele>
        <time>2014-04-10T10:11:11Z</time>
      </trkpt>
      <trkpt lat="41.696480" lon="-0.824989">
        <ele>207.478</ele>
        <time>2014-04-10T10:11:36Z</time>
      </trkpt>
      <trkpt lat="41.698149" lon="-0.829319">
        <ele>202.677</ele>
        <time>2014-04-10T10:12:33Z</time>
      </trkpt>
      <trkpt lat="41.698103" lon="-0.829947">
        <ele>200.855</ele>
        <time>2014-04-10T10:12:45Z</time>
      </trkpt>
      <trkpt lat="41.698013" lon="-0.830255">
        <ele>199.058</ele>
        <time>2014-04-10T10:12:50Z</time>
      </trkpt>
      <trkpt lat="41.697185" lon="-0.830917">
        <ele>201.445</ele>
        <time>2014-04-10T10:13:13Z</time>
      </trkpt>
      <trkpt lat="41.695056" lon="-0.833668">
        <ele>199.851</ele>
        <time>2014-04-10T10:14:11Z</time>
      </trkpt>
      <trkpt lat="41.692531" lon="-0.837790">
        <ele>199.883</ele>
        <time>2014-04-10T10:15:17Z</time>
      </trkpt>
      <trkpt lat="41.690512" lon="-0.839472">
        <ele>197.227</ele>
        <time>2014-04-10T10:15:53Z</time>
      </trkpt>
      <trkpt lat="41.688080" lon="-0.840393">
        <ele>196.068</ele>
        <time>2014-04-10T10:16:33Z</time>
      </trkpt>
      <trkpt lat="41.686998" lon="-0.840353">
        <ele>195.414</ele>
        <time>2014-04-10T10:16:50Z</time>
      </trkpt>
      <trkpt lat="41.684680" lon="-0.840646">
        <ele>193.607</ele>
        <time>2014-04-10T10:17:25Z</time>
      </trkpt>
      <trkpt lat="41.683971" lon="-0.840983">
        <ele>193.298</ele>
        <time>2014-04-10T10:17:36Z</time>
      </trkpt>
      <trkpt lat="41.683354" lon="-0.841766">
        <ele>193.887</ele>
        <time>2014-04-10T10:17:49Z</time>
      </trkpt>
      <trkpt lat="41.682832" lon="-0.841848">
        <ele>193.855</ele>
        <time>2014-04-10T10:17:57Z</time>
      </trkpt>
      <trkpt lat="41.678419" lon="-0.841667">
        <ele>192.678</ele>
        <time>2014-04-10T10:19:02Z</time>
      </trkpt>
      <trkpt lat="41.677310" lon="-0.841487">
        <ele>192.025</ele>
        <time>2014-04-10T10:19:21Z</time>
      </trkpt>
      <trkpt lat="41.677155" lon="-0.841644">
        <ele>191.451</ele>
        <time>2014-04-10T10:19:26Z</time>
      </trkpt>
      <trkpt lat="41.677156" lon="-0.842423">
        <ele>188.853</ele>
        <time>2014-04-10T10:19:40Z</time>
      </trkpt>
      <trkpt lat="41.676693" lon="-0.842463">
        <ele>189.286</ele>
        <time>2014-04-10T10:19:49Z</time>
      </trkpt>
      <trkpt lat="41.676546" lon="-0.842340">
        <ele>189.260</ele>
        <time>2014-04-10T10:19:53Z</time>
      </trkpt>
      <trkpt lat="41.676482" lon="-0.841901">
        <ele>190.826</ele>
        <time>2014-04-10T10:20:02Z</time>
      </trkpt>
      <trkpt lat="41.676547" lon="-0.842538">
        <ele>189.807</ele>
        <time>2014-04-10T10:20:17Z</time>
      </trkpt>
      <trkpt lat="41.676312" lon="-0.842613">
        <ele>189.224</ele>
        <time>2014-04-10T10:20:23Z</time>
      </trkpt>
      <trkpt lat="41.675411" lon="-0.842432">
        <ele>189.043</ele>
        <time>2014-04-10T10:20:42Z</time>
      </trkpt>
      <trkpt lat="41.674837" lon="-0.841924">
        <ele>190.641</ele>
        <time>2014-04-10T10:20:56Z</time>
      </trkpt>
      <trkpt lat="41.672352" lon="-0.841834">
        <ele>188.834</ele>
        <time>2014-04-10T10:21:38Z</time>
      </trkpt>
      <trkpt lat="41.671859" lon="-0.841675">
        <ele>188.031</ele>
        <time>2014-04-10T10:21:45Z</time>
      </trkpt>
      <trkpt lat="41.671118" lon="-0.841130">
        <ele>189.297</ele>
        <time>2014-04-10T10:22:00Z</time>
      </trkpt>
      <trkpt lat="41.670689" lon="-0.841404">
        <ele>189.239</ele>
        <time>2014-04-10T10:22:11Z</time>
      </trkpt>
      <trkpt lat="41.669604" lon="-0.841093">
        <ele>189.265</ele>
        <time>2014-04-10T10:22:31Z</time>
      </trkpt>
      <trkpt lat="41.668677" lon="-0.841143">
        <ele>189.268</ele>
        <time>2014-04-10T10:22:49Z</time>
      </trkpt>
      <trkpt lat="41.668491" lon="-0.841293">
        <ele>189.014</ele>
        <time>2014-04-10T10:22:54Z</time>
      </trkpt>
      <trkpt lat="41.668431" lon="-0.842799">
        <ele>192.007</ele>
        <time>2014-04-10T10:23:19Z</time>
      </trkpt>
      <trkpt lat="41.667240" lon="-0.843745">
        <ele>192.472</ele>
        <time>2014-04-10T10:23:42Z</time>
      </trkpt>
      <trkpt lat="41.666576" lon="-0.843994">
        <ele>193.641</ele>
        <time>2014-04-10T10:23:55Z</time>
      </trkpt>
      <trkpt lat="41.666167" lon="-0.844328">
        <ele>190.459</ele>
        <time>2014-04-10T10:24:05Z</time>
      </trkpt>
      <trkpt lat="41.665825" lon="-0.843612">
        <ele>187.022</ele>
        <time>2014-04-10T10:24:20Z</time>
      </trkpt>
      <trkpt lat="41.664730" lon="-0.844235">
        <ele>186.619</ele>
        <time>2014-04-10T10:24:43Z</time>
      </trkpt>
      <trkpt lat="41.663240" lon="-0.846167">
        <ele>185.435</ele>
        <time>2014-04-10T10:25:16Z</time>
      </trkpt>
      <trkpt lat="41.660451" lon="-0.847757">
        <ele>186.897</ele>
        <time>2014-04-10T10:26:07Z</time>
      </trkpt>
      <trkpt lat="41.659432" lon="-0.848849">
        <ele>185.627</ele>
        <time>2014-04-10T10:26:28Z</time>
      </trkpt>
      <trkpt lat="41.659046" lon="-0.848815">
        <ele>186.068</ele>
        <time>2014-04-10T10:26:34Z</time>
      </trkpt>
      <trkpt lat="41.658160" lon="-0.849073">
        <ele>186.614</ele>
        <time>2014-04-10T10:26:48Z</time>
      </trkpt>
      <trkpt lat="41.656449" lon="-0.849970">
        <ele>186.407</ele>
        <time>2014-04-10T10:27:14Z</time>
      </trkpt>
      <trkpt lat="41.655738" lon="-0.850494">
        <ele>187.428</ele>
        <time>2014-04-10T10:27:26Z</time>
      </trkpt>
      <trkpt lat="41.655096" lon="-0.850543">
        <ele>188.667</ele>
        <time>2014-04-10T10:27:36Z</time>
      </trkpt>
      <trkpt lat="41.654734" lon="-0.850365">
        <ele>192.485</ele>
        <time>2014-04-10T10:27:48Z</time>
      </trkpt>
      <trkpt lat="41.654929" lon="-0.850680">
        <ele>188.448</ele>
        <time>2014-04-10T10:28:06Z</time>
      </trkpt>
      <trkpt lat="41.654698" lon="-0.850943">
        <ele>187.445</ele>
        <time>2014-04-10T10:28:13Z</time>
      </trkpt>
      <trkpt lat="41.652159" lon="-0.851616">
        <ele>186.891</ele>
        <time>2014-04-10T10:28:58Z</time>
      </trkpt>
      <trkpt lat="41.651815" lon="-0.853802">
        <ele>186.473</ele>
        <time>2014-04-10T10:29:25Z</time>
      </trkpt>
      <trkpt lat="41.652092" lon="-0.854614">
        <ele>186.867</ele>
        <time>2014-04-10T10:29:37Z</time>
      </trkpt>
      <trkpt lat="41.652274" lon="-0.854500">
        <ele>191.081</ele>
        <time>2014-04-10T10:29:41Z</time>
      </trkpt>
      <trkpt lat="41.652246" lon="-0.853581">
        <ele>189.419</ele>
        <time>2014-04-10T10:29:53Z</time>
      </trkpt>
      <trkpt lat="41.652564" lon="-0.853369">
        <ele>190.007</ele>
        <time>2014-04-10T10:29:59Z</time>
      </trkpt>
      <trkpt lat="41.653173" lon="-0.853334">
        <ele>193.852</ele>
        <time>2014-04-10T10:30:10Z</time>
      </trkpt>
      <trkpt lat="41.653259" lon="-0.853723">
        <ele>195.271</ele>
        <time>2014-04-10T10:30:16Z</time>
      </trkpt>
      <trkpt lat="41.652624" lon="-0.854044">
        <ele>196.039</ele>
        <time>2014-04-10T10:30:29Z</time>
      </trkpt>
      <trkpt lat="41.648632" lon="-0.854984">
        <ele>198.042</ele>
        <time>2014-04-10T10:31:35Z</time>
      </trkpt>
      <trkpt lat="41.646840" lon="-0.855556">
        <ele>194.299</ele>
        <time>2014-04-10T10:32:02Z</time>
      </trkpt>
      <trkpt lat="41.645170" lon="-0.856154">
        <ele>189.465</ele>
        <time>2014-04-10T10:32:25Z</time>
      </trkpt>
      <trkpt lat="41.643396" lon="-0.857450">
        <ele>189.077</ele>
        <time>2014-04-10T10:32:52Z</time>
      </trkpt>
      <trkpt lat="41.639483" lon="-0.858369">
        <ele>193.828</ele>
        <time>2014-04-10T10:33:48Z</time>
      </trkpt>
      <trkpt lat="41.638465" lon="-0.858917">
        <ele>195.089</ele>
        <time>2014-04-10T10:34:04Z</time>
      </trkpt>
      <trkpt lat="41.637414" lon="-0.859809">
        <ele>196.217</ele>
        <time>2014-04-10T10:34:22Z</time>
      </trkpt>
      <trkpt lat="41.635247" lon="-0.862185">
        <ele>196.807</ele>
        <time>2014-04-10T10:35:09Z</time>
      </trkpt>
      <trkpt lat="41.634627" lon="-0.862247">
        <ele>193.888</ele>
        <time>2014-04-10T10:35:24Z</time>
      </trkpt>
      <trkpt lat="41.633915" lon="-0.862690">
        <ele>195.447</ele>
        <time>2014-04-10T10:35:39Z</time>
      </trkpt>
      <trkpt lat="41.633856" lon="-0.862911">
        <ele>195.815</ele>
        <time>2014-04-10T10:35:43Z</time>
      </trkpt>
      <trkpt lat="41.633794" lon="-0.863382">
        <ele>196.898</ele>
        <time>2014-04-10T10:35:51Z</time>
      </trkpt>
      <trkpt lat="41.634065" lon="-0.863842">
        <ele>198.295</ele>
        <time>2014-04-10T10:36:03Z</time>
      </trkpt>
      <trkpt lat="41.634796" lon="-0.863831">
        <ele>194.431</ele>
        <time>2014-04-10T10:36:18Z</time>
      </trkpt>
      <trkpt lat="41.635598" lon="-0.864985">
        <ele>195.013</ele>
        <time>2014-04-10T10:36:44Z</time>
      </trkpt>
      <trkpt lat="41.636691" lon="-0.867031">
        <ele>194.639</ele>
        <time>2014-04-10T10:37:18Z</time>
      </trkpt>
      <trkpt lat="41.637496" lon="-0.868956">
        <ele>194.801</ele>
        <time>2014-04-10T10:37:47Z</time>
      </trkpt>
      <trkpt lat="41.637106" lon="-0.869217">
        <ele>193.621</ele>
        <time>2014-04-10T10:37:58Z</time>
      </trkpt>
      <trkpt lat="41.635754" lon="-0.872983">
        <ele>202.807</ele>
        <time>2014-04-10T10:39:18Z</time>
      </trkpt>
      <trkpt lat="41.635491" lon="-0.873139">
        <ele>202.459</ele>
        <time>2014-04-10T10:39:27Z</time>
      </trkpt>
      <trkpt lat="41.635505" lon="-0.873454">
        <ele>202.298</ele>
        <time>2014-04-10T10:39:37Z</time>
      </trkpt>
      <trkpt lat="41.634772" lon="-0.873863">
        <ele>203.236</ele>
        <time>2014-04-10T10:39:53Z</time>
      </trkpt>
      <trkpt lat="41.634823" lon="-0.874239">
        <ele>190.429</ele>
        <time>2014-04-10T10:40:15Z</time>
      </trkpt>
      <trkpt lat="41.635099" lon="-0.874065">
        <ele>207.466</ele>
        <time>2014-04-10T10:40:59Z</time>
      </trkpt>
    </trkseg>
  </trk>
</gpx>
